Wetterdaten: Mittwoch, 17.02.2021
Datum Zeit Temp. Aussen Temp. o. S. Temp +5cm Feuchte Auss Luftdruck Regen Sonnenschein Regendauer Solar Windben Empfang
17.02.2021 00:00 7,5 C 6,7 C 6,1 C 96 % 1012,9 hPa 0,0 l/m 0 min 0 min 0 W/m 0,0 km/h (0 Bft) 97,87 %
17.02.2021 00:02 7,5 C 6,1 C 6,1 C 95 % 1012,9 hPa 0,0 l/m 0 min 0 min 0 W/m 0,0 km/h (0 Bft) 94,87 %
17.02.2021 00:04 7,5 C 6,1 C 6,1 C 95 % 1012,9 hPa 0,0 l/m 0 min 0 min 0 W/m 3,2 km/h (1 Bft) 97,87 %
17.02.2021 00:08 7,4 C 6,1 C 6,1 C 95 % 1012,9 hPa 0,0 l/m 0 min 0 min 0 W/m 3,2 km/h (1 Bft) 97,92 %
17.02.2021 00:10 7,4 C 6,1 C 5,6 C 95 % 1012,9 hPa 0,0 l/m 0 min 0 min 0 W/m 0,0 km/h (0 Bft) 97,87 %
17.02.2021 00:12 7,4 C 6,1 C 5,6 C 95 % 1013,0 hPa 0,0 l/m 0 min 0 min 0 W/m 0,0 km/h (0 Bft) 97,87 %
17.02.2021 00:14 7,3 C 6,1 C 5,6 C 95 % 1012,9 hPa 0,0 l/m 0 min 0 min 0 W/m 0,0 km/h (0 Bft) 95,74 %
17.02.2021 00:16 7,3 C 6,1 C 5,6 C 95 % 1013,0 hPa 0,0 l/m 0 min 0 min 0 W/m 0,0 km/h (0 Bft) 95,74 %
17.02.2021 00:18 7,3 C 6,1 C 5,6 C 95 % 1013,0 hPa 0,0 l/m 0 min 0 min 0 W/m 0,0 km/h (0 Bft) 100,00 %
17.02.2021 00:20 7,3 C 6,1 C 5,6 C 95 % 1013,1 hPa 0,0 l/m 0 min 0 min 0 W/m 0,0 km/h (0 Bft) 100,00 %
17.02.2021 00:22 7,3 C 6,1 C 6,1 C 95 % 1013,1 hPa 0,0 l/m 0 min 0 min 0 W/m 0,0 km/h (0 Bft) 100,00 %
17.02.2021 00:24 7,3 C 6,1 C 6,1 C 95 % 1013,1 hPa 0,0 l/m 0 min 0 min 0 W/m 0,0 km/h (0 Bft) 100,00 %
17.02.2021 00:26 7,2 C 6,1 C 6,1 C 95 % 1013,1 hPa 0,0 l/m 0 min 0 min 0 W/m 0,0 km/h (0 Bft) 95,74 %
17.02.2021 00:28 7,2 C 6,1 C 6,1 C 95 % 1013,2 hPa 0,0 l/m 0 min 0 min 0 W/m 0,0 km/h (0 Bft) 97,87 %
17.02.2021 00:30 7,2 C 6,1 C 6,1 C 95 % 1013,2 hPa 0,0 l/m 0 min 0 min 0 W/m 3,2 km/h (1 Bft) 100,00 %
17.02.2021 00:32 7,2 C 6,1 C 6,1 C 95 % 1013,2 hPa 0,0 l/m 0 min 0 min 0 W/m 0,0 km/h (0 Bft) 100,00 %
17.02.2021 00:34 7,2 C 6,1 C 6,1 C 95 % 1013,2 hPa 0,0 l/m 0 min 0 min 0 W/m 0,0 km/h (0 Bft) 100,00 %
17.02.2021 00:36 7,2 C 6,1 C 6,1 C 96 % 1013,2 hPa 0,0 l/m 0 min 0 min 0 W/m 3,2 km/h (1 Bft) 97,87 %
17.02.2021 00:38 7,2 C 6,7 C 6,1 C 96 % 1013,2 hPa 0,0 l/m 0 min 0 min 0 W/m 3,2 km/h (1 Bft) 97,87 %
17.02.2021 00:40 7,2 C 6,7 C 6,1 C 96 % 1013,3 hPa 0,0 l/m 0 min 0 min 0 W/m 6,4 km/h (2 Bft) 100,00 %
17.02.2021 00:42 7,3 C 6,7 C 6,1 C 96 % 1013,3 hPa 0,0 l/m 0 min 0 min 0 W/m 16,1 km/h (3 Bft) 100,00 %
17.02.2021 00:44 7,3 C 6,7 C 6,1 C 96 % 1013,2 hPa 0,0 l/m 0 min 0 min 0 W/m 9,7 km/h (2 Bft) 100,00 %
17.02.2021 00:46 7,3 C 6,7 C 6,1 C 96 % 1013,3 hPa 0,0 l/m 0 min 0 min 0 W/m 0,0 km/h (0 Bft) 97,87 %
17.02.2021 00:48 7,3 C 6,7 C 6,1 C 96 % 1013,3 hPa 0,0 l/m 0 min 0 min 0 W/m 0,0 km/h (0 Bft) 97,87 %
17.02.2021 00:50 7,3 C 6,7 C 6,1 C 96 % 1013,3 hPa 0,0 l/m 0 min 0 min 0 W/m 3,2 km/h (1 Bft) 97,87 %
17.02.2021 00:52 7,3 C 6,7 C 6,1 C 96 % 1013,4 hPa 0,0 l/m 0 min 0 min 0 W/m 0,0 km/h (0 Bft) 95,74 %
17.02.2021 00:54 7,3 C 6,7 C 6,1 C 96 % 1013,4 hPa 0,0 l/m 0 min 0 min 0 W/m 3,2 km/h (1 Bft) 97,83 %
17.02.2021 00:56 7,3 C 6,7 C 6,1 C 96 % 1013,5 hPa 0,0 l/m 0 min 0 min 0 W/m 0,0 km/h (0 Bft) 95,74 %
17.02.2021 00:58 7,3 C 6,7 C 6,1 C 96 % 1013,4 hPa 0,0 l/m 0 min 0 min 0 W/m 0,0 km/h (0 Bft) 93,62 %
17.02.2021 01:00 7,4 C 6,7 C 6,1 C 96 % 1013,4 hPa 0,0 l/m 0 min 0 min 0 W/m 3,2 km/h (1 Bft) 95,74 %
17.02.2021 01:02 7,4 C 6,7 C 6,1 C 96 % 1013,5 hPa 0,0 l/m 0 min 0 min 0 W/m 3,2 km/h (1 Bft) 97,87 %
17.02.2021 01:04 7,4 C 6,7 C 6,1 C 96 % 1013,5 hPa 0,0 l/m 0 min 0 min 0 W/m 3,2 km/h (1 Bft) 95,74 %
17.02.2021 01:06 7,4 C 6,7 C 6,1 C 96 % 1013,5 hPa 0,0 l/m 0 min 0 min 0 W/m 0,0 km/h (0 Bft) 97,83 %
17.02.2021 01:08 7,4 C 6,7 C 6,1 C 96 % 1013,5 hPa 0,0 l/m 0 min 0 min 0 W/m 0,0 km/h (0 Bft) 95,56 %
17.02.2021 01:10 7,4 C 6,7 C 6,1 C 96 % 1013,6 hPa 0,0 l/m 0 min 0 min 0 W/m 6,4 km/h (2 Bft) 97,87 %
17.02.2021 01:12 7,4 C 6,7 C 6,1 C 96 % 1013,5 hPa 0,0 l/m 0 min 0 min 0 W/m 3,2 km/h (1 Bft) 97,87 %
17.02.2021 01:14 7,5 C 6,7 C 6,1 C 96 % 1013,6 hPa 0,0 l/m 0 min 0 min 0 W/m 0,0 km/h (0 Bft) 95,74 %
17.02.2021 01:16 7,5 C 6,7 C 6,1 C 96 % 1013,6 hPa 0,0 l/m 0 min 0 min 0 W/m 0,0 km/h (0 Bft) 97,87 %
17.02.2021 01:18 7,5 C 6,7 C 6,1 C 96 % 1013,7 hPa 0,0 l/m 0 min 0 min 0 W/m 0,0 km/h (0 Bft) 93,62 %
17.02.2021 01:20 7,5 C 6,7 C 6,1 C 96 % 1013,7 hPa 0,0 l/m 0 min 0 min 0 W/m 0,0 km/h (0 Bft) 97,83 %
17.02.2021 01:22 7,5 C 6,7 C 6,1 C 96 % 1013,7 hPa 0,0 l/m 0 min 0 min 0 W/m 0,0 km/h (0 Bft) 91,49 %
17.02.2021 01:24 7,5 C 6,7 C 6,1 C 96 % 1013,7 hPa 0,0 l/m 0 min 0 min 0 W/m 3,2 km/h (1 Bft) 97,87 %
17.02.2021 01:26 7,5 C 6,7 C 6,1 C 96 % 1013,7 hPa 0,0 l/m 0 min 0 min 0 W/m 0,0 km/h (0 Bft) 97,87 %
17.02.2021 01:28 7,5 C 6,7 C 6,1 C 96 % 1013,7 hPa 0,0 l/m 0 min 0 min 0 W/m 0,0 km/h (0 Bft) 97,87 %
17.02.2021 01:30 7,5 C 6,7 C 6,1 C 95 % 1013,8 hPa 0,0 l/m 0 min 0 min 0 W/m 0,0 km/h (0 Bft) 100,00 %
17.02.2021 01:32 7,5 C 6,7 C 6,1 C 95 % 1013,7 hPa 0,0 l/m 0 min 0 min 0 W/m 0,0 km/h (0 Bft) 95,65 %
17.02.2021 01:34 7,5 C 6,7 C 6,1 C 95 % 1013,7 hPa 0,0 l/m 0 min 0 min 0 W/m 0,0 km/h (0 Bft) 97,87 %
17.02.2021 01:36 7,5 C 6,7 C 6,1 C 95 % 1013,8 hPa 0,0 l/m 0 min 0 min 0 W/m 0,0 km/h (0 Bft) 97,87 %
17.02.2021 01:38 7,5 C 6,7 C 6,1 C 95 % 1013,8 hPa 0,0 l/m 0 min 0 min 0 W/m 0,0 km/h (0 Bft) 97,87 %
17.02.2021 01:40 7,5 C 6,7 C 6,1 C 95 % 1013,8 hPa 0,0 l/m 0 min 0 min 0 W/m 0,0 km/h (0 Bft) 97,87 %
17.02.2021 01:42 7,6 C 6,7 C 6,1 C 95 % 1013,8 hPa 0,0 l/m 0 min 0 min 0 W/m 0,0 km/h (0 Bft) 97,83 %
17.02.2021 01:44 7,5 C 6,7 C 6,1 C 95 % 1013,8 hPa 0,0 l/m 0 min 0 min 0 W/m 0,0 km/h (0 Bft) 95,74 %
17.02.2021 01:46 7,5 C 6,7 C 6,1 C 95 % 1013,9 hPa 0,0 l/m 0 min 0 min 0 W/m 0,0 km/h (0 Bft) 100,00 %
17.02.2021 01:48 7,6 C 6,7 C 6,1 C 95 % 1013,9 hPa 0,0 l/m 0 min 0 min 0 W/m 0,0 km/h (0 Bft) 95,74 %
17.02.2021 01:50 7,6 C 6,7 C 6,1 C 95 % 1013,9 hPa 0,0 l/m 0 min 0 min 0 W/m 0,0 km/h (0 Bft) 97,87 %
17.02.2021 01:52 7,6 C 6,7 C 6,7 C 95 % 1013,9 hPa 0,0 l/m 0 min 0 min 0 W/m 0,0 km/h (0 Bft) 97,87 %
17.02.2021 01:54 7,6 C 6,7 C 6,1 C 95 % 1014,0 hPa 0,0 l/m 0 min 0 min 0 W/m 0,0 km/h (0 Bft) 97,83 %
17.02.2021 01:56 7,6 C 6,7 C 6,1 C 95 % 1014,0 hPa 0,0 l/m 0 min 0 min 0 W/m 0,0 km/h (0 Bft) 95,74 %
17.02.2021 01:58 7,6 C 6,7 C 6,7 C 95 % 1014,0 hPa 0,0 l/m 0 min 0 min 0 W/m 0,0 km/h (0 Bft) 97,87 %
17.02.2021 02:00 7,7 C 6,7 C 6,7 C 95 % 1014,0 hPa 0,0 l/m 0 min 0 min 0 W/m 0,0 km/h (0 Bft) 95,74 %
17.02.2021 02:02 7,7 C 6,7 C 6,7 C 95 % 1014,0 hPa 0,0 l/m 0 min 0 min 0 W/m 0,0 km/h (0 Bft) 97,87 %
17.02.2021 02:04 7,7 C 6,7 C 6,7 C 95 % 1014,0 hPa 0,0 l/m 0 min 0 min 0 W/m 3,2 km/h (1 Bft) 93,62 %
17.02.2021 02:06 7,8 C 6,7 C 6,7 C 95 % 1014,0 hPa 0,0 l/m 0 min 0 min 0 W/m 0,0 km/h (0 Bft) 97,83 %
17.02.2021 02:08 7,8 C 6,7 C 6,7 C 95 % 1013,9 hPa 0,0 l/m 0 min 0 min 0 W/m 0,0 km/h (0 Bft) 97,87 %
17.02.2021 02:10 7,8 C 6,7 C 6,7 C 94 % 1014,0 hPa 0,0 l/m 0 min 0 min 0 W/m 0,0 km/h (0 Bft) 95,92 %
17.02.2021 02:12 7,8 C 6,7 C 6,7 C 94 % 1014,1 hPa 0,0 l/m 0 min 0 min 0 W/m 0,0 km/h (0 Bft) 97,87 %
17.02.2021 02:14 7,8 C 6,7 C 6,7 C 94 % 1014,1 hPa 0,0 l/m 0 min 0 min 0 W/m 3,2 km/h (1 Bft) 97,87 %
17.02.2021 02:16 7,8 C 6,7 C 6,7 C 94 % 1014,1 hPa 0,0 l/m 0 min 0 min 0 W/m 0,0 km/h (0 Bft) 97,87 %
17.02.2021 02:18 7,8 C 6,7 C 6,7 C 94 % 1014,1 hPa 0,0 l/m 0 min 0 min 0 W/m 0,0 km/h (0 Bft) 93,48 %
17.02.2021 02:20 7,8 C 6,7 C 6,7 C 94 % 1014,1 hPa 0,0 l/m 0 min 0 min 0 W/m 0,0 km/h (0 Bft) 97,87 %
17.02.2021 02:22 7,8 C 6,7 C 6,7 C 94 % 1014,1 hPa 0,0 l/m 0 min 0 min 0 W/m 0,0 km/h (0 Bft) 95,74 %
17.02.2021 02:24 7,8 C 6,7 C 6,7 C 94 % 1014,2 hPa 0,0 l/m 0 min 0 min 0 W/m 0,0 km/h (0 Bft) 100,00 %
17.02.2021 02:26 7,8 C 6,7 C 6,1 C 94 % 1014,2 hPa 0,0 l/m 0 min 0 min 0 W/m 0,0 km/h (0 Bft) 100,00 %
17.02.2021 02:28 7,8 C 6,7 C 6,7 C 94 % 1014,3 hPa 0,0 l/m 0 min 0 min 0 W/m 6,4 km/h (2 Bft) 100,00 %
17.02.2021 02:30 7,8 C 6,7 C 6,7 C 94 % 1014,3 hPa 0,0 l/m 0 min 0 min 0 W/m 6,4 km/h (2 Bft) 100,00 %
17.02.2021 02:32 7,8 C 7,2 C 6,7 C 94 % 1014,3 hPa 0,0 l/m 0 min 0 min 0 W/m 0,0 km/h (0 Bft) 97,87 %
17.02.2021 02:34 7,9 C 7,2 C 6,7 C 94 % 1014,4 hPa 0,0 l/m 0 min 0 min 0 W/m 0,0 km/h (0 Bft) 100,00 %
17.02.2021 02:36 7,9 C 7,2 C 6,7 C 94 % 1014,4 hPa 0,0 l/m 0 min 0 min 0 W/m 0,0 km/h (0 Bft) 100,00 %
17.02.2021 02:38 7,8 C 7,2 C 6,7 C 94 % 1014,5 hPa 0,0 l/m 0 min 0 min 0 W/m 0,0 km/h (0 Bft) 100,00 %
17.02.2021 02:40 7,8 C 7,2 C 6,7 C 94 % 1014,5 hPa 0,0 l/m 0 min 0 min 0 W/m 0,0 km/h (0 Bft) 100,00 %
17.02.2021 02:42 7,8 C 7,2 C 6,7 C 94 % 1014,5 hPa 0,0 l/m 0 min 0 min 0 W/m 6,4 km/h (2 Bft) 100,00 %
17.02.2021 02:44 7,8 C 7,2 C 6,7 C 94 % 1014,5 hPa 0,0 l/m 0 min 0 min 0 W/m 19,3 km/h (3 Bft) 97,87 %
17.02.2021 02:46 7,8 C 7,2 C 6,7 C 94 % 1014,5 hPa 0,0 l/m 0 min 0 min 0 W/m 16,1 km/h (3 Bft) 97,87 %
17.02.2021 02:48 7,8 C 7,2 C 6,7 C 94 % 1014,4 hPa 0,0 l/m 0 min 0 min 0 W/m 0,0 km/h (0 Bft) 100,00 %
17.02.2021 02:50 7,8 C 7,2 C 6,7 C 94 % 1014,5 hPa 0,0 l/m 0 min 0 min 0 W/m 0,0 km/h (0 Bft) 100,00 %
17.02.2021 02:52 7,8 C 7,2 C 6,7 C 93 % 1014,6 hPa 0,0 l/m 0 min 0 min 0 W/m 19,3 km/h (3 Bft) 97,83 %
17.02.2021 02:54 7,8 C 7,2 C 6,7 C 93 % 1014,6 hPa 0,0 l/m 0 min 0 min 0 W/m 0,0 km/h (0 Bft) 97,87 %
17.02.2021 02:56 7,8 C 7,2 C 6,7 C 93 % 1014,6 hPa 0,0 l/m 0 min 0 min 0 W/m 0,0 km/h (0 Bft) 100,00 %
17.02.2021 02:58 7,8 C 7,2 C 6,7 C 93 % 1014,5 hPa 0,0 l/m 0 min 0 min 0 W/m 0,0 km/h (0 Bft) 100,00 %
17.02.2021 03:00 7,9 C 7,2 C 6,7 C 93 % 1014,5 hPa 0,0 l/m 0 min 0 min 0 W/m 0,0 km/h (0 Bft) 100,00 %
17.02.2021 03:02 7,9 C 7,2 C 6,7 C 93 % 1014,5 hPa 0,0 l/m 0 min 0 min 0 W/m 0,0 km/h (0 Bft) 100,00 %
17.02.2021 03:04 7,9 C 7,2 C 6,7 C 93 % 1014,6 hPa 0,0 l/m 0 min 0 min 0 W/m 0,0 km/h (0 Bft) 100,00 %
17.02.2021 03:06 7,8 C 7,2 C 6,7 C 93 % 1014,6 hPa 0,0 l/m 0 min 0 min 0 W/m 0,0 km/h (0 Bft) 95,74 %
17.02.2021 03:08 7,8 C 7,2 C 6,7 C 93 % 1014,5 hPa 0,0 l/m 0 min 0 min 0 W/m 0,0 km/h (0 Bft) 97,87 %
17.02.2021 03:10 7,8 C 7,2 C 6,7 C 93 % 1014,5 hPa 0,0 l/m 0 min 0 min 0 W/m 0,0 km/h (0 Bft) 100,00 %
17.02.2021 03:12 7,8 C 7,2 C 6,7 C 93 % 1014,6 hPa 0,0 l/m 0 min 0 min 0 W/m 0,0 km/h (0 Bft) 100,00 %
17.02.2021 03:14 7,8 C 7,2 C 6,7 C 93 % 1014,5 hPa 0,0 l/m 0 min 0 min 0 W/m 3,2 km/h (1 Bft) 97,87 %
17.02.2021 03:16 7,8 C 7,2 C 6,7 C 93 % 1014,6 hPa 0,0 l/m 0 min 0 min 0 W/m 3,2 km/h (1 Bft) 100,00 %
17.02.2021 03:18 7,8 C 7,2 C 6,7 C 93 % 1014,5 hPa 0,0 l/m 0 min 0 min 0 W/m 3,2 km/h (1 Bft) 100,00 %
17.02.2021 03:20 7,8 C 7,2 C 6,7 C 93 % 1014,6 hPa 0,0 l/m 0 min 0 min 0 W/m 0,0 km/h (0 Bft) 100,00 %
17.02.2021 03:22 7,7 C 7,2 C 6,1 C 93 % 1014,6 hPa 0,0 l/m 0 min 0 min 0 W/m 0,0 km/h (0 Bft) 100,00 %
17.02.2021 03:24 7,7 C 7,2 C 6,7 C 93 % 1014,5 hPa 0,0 l/m 0 min 0 min 0 W/m 3,2 km/h (1 Bft) 95,74 %
17.02.2021 03:26 7,7 C 7,2 C 6,7 C 93 % 1014,5 hPa 0,0 l/m 0 min 0 min 0 W/m 45,1 km/h (6 Bft) 97,83 %
17.02.2021 03:28 7,7 C 7,2 C 6,7 C 93 % 1014,6 hPa 0,0 l/m 0 min 0 min 0 W/m 48,3 km/h (6 Bft) 97,87 %
17.02.2021 03:30 7,6 C 7,2 C 6,7 C 93 % 1014,6 hPa 0,0 l/m 0 min 0 min 0 W/m 9,7 km/h (2 Bft) 97,87 %
17.02.2021 03:32 7,6 C 7,2 C 6,7 C 93 % 1014,6 hPa 0,0 l/m 0 min 0 min 0 W/m 3,2 km/h (1 Bft) 95,74 %
17.02.2021 03:34 7,7 C 7,2 C 6,7 C 93 % 1014,7 hPa 0,0 l/m 0 min 0 min 0 W/m 0,0 km/h (0 Bft) 97,87 %
17.02.2021 03:36 7,7 C 7,2 C 6,7 C 93 % 1014,7 hPa 0,0 l/m 0 min 0 min 0 W/m 3,2 km/h (1 Bft) 97,87 %
17.02.2021 03:38 7,7 C 7,2 C 6,7 C 93 % 1014,7 hPa 0,0 l/m 0 min 0 min 0 W/m 3,2 km/h (1 Bft) 97,87 %
17.02.2021 03:40 7,7 C 7,2 C 6,7 C 93 % 1014,8 hPa 0,0 l/m 0 min 0 min 0 W/m 6,4 km/h (2 Bft) 97,83 %
17.02.2021 03:42 7,7 C 7,2 C 6,7 C 93 % 1014,8 hPa 0,0 l/m 0 min 0 min 0 W/m 3,2 km/h (1 Bft) 97,87 %
17.02.2021 03:44 7,7 C 7,2 C 6,7 C 93 % 1014,8 hPa 0,0 l/m 0 min 0 min 0 W/m 3,2 km/h (1 Bft) 95,74 %
17.02.2021 03:46 7,7 C 7,2 C 6,7 C 93 % 1014,8 hPa 0,0 l/m 0 min 0 min 0 W/m 0,0 km/h (0 Bft) 95,74 %
17.02.2021 03:48 7,8 C 7,2 C 6,7 C 93 % 1014,9 hPa 0,0 l/m 0 min 0 min 0 W/m 0,0 km/h (0 Bft) 95,74 %
17.02.2021 03:50 7,8 C 7,2 C 6,7 C 93 % 1014,8 hPa 0,0 l/m 0 min 0 min 0 W/m 0,0 km/h (0 Bft) 97,87 %
17.02.2021 03:52 7,8 C 7,2 C 6,7 C 92 % 1014,9 hPa 0,0 l/m 0 min 0 min 0 W/m 0,0 km/h (0 Bft) 97,83 %
17.02.2021 03:54 7,8 C 7,2 C 6,7 C 92 % 1014,9 hPa 0,0 l/m 0 min 0 min 0 W/m 3,2 km/h (1 Bft) 100,00 %
17.02.2021 03:56 7,8 C 7,2 C 6,7 C 92 % 1015,0 hPa 0,0 l/m 0 min 0 min 0 W/m 0,0 km/h (0 Bft) 97,87 %
17.02.2021 03:58 7,8 C 7,2 C 6,7 C 92 % 1014,9 hPa 0,0 l/m 0 min 0 min 0 W/m 0,0 km/h (0 Bft) 97,87 %
17.02.2021 04:00 7,8 C 7,2 C 6,7 C 92 % 1014,9 hPa 0,0 l/m 0 min 0 min 0 W/m 0,0 km/h (0 Bft) 97,87 %
17.02.2021 04:05 7,9 C 7,2 C 6,7 C 92 % 1014,9 hPa 0,0 l/m 0 min 0 min 0 W/m 9,7 km/h (2 Bft) 97,44 %
17.02.2021 04:06 7,9 C 7,2 C 6,7 C 92 % 1014,9 hPa 0,0 l/m 0 min 0 min 0 W/m 0,0 km/h (0 Bft) 100,00 %
17.02.2021 04:08 7,9 C 7,2 C 6,7 C 92 % 1014,9 hPa 0,0 l/m 0 min 0 min 0 W/m 3,2 km/h (1 Bft) 93,62 %
17.02.2021 04:10 7,9 C 7,2 C 6,7 C 92 % 1014,9 hPa 0,0 l/m 0 min 0 min 0 W/m 3,2 km/h (1 Bft) 97,92 %
17.02.2021 04:12 7,9 C 7,2 C 6,7 C 92 % 1014,9 hPa 0,0 l/m 0 min 0 min 0 W/m 0,0 km/h (0 Bft) 100,00 %
17.02.2021 04:14 7,9 C 7,2 C 6,7 C 92 % 1014,9 hPa 0,0 l/m 0 min 0 min 0 W/m 3,2 km/h (1 Bft) 97,87 %
17.02.2021 04:16 7,9 C 7,2 C 6,7 C 92 % 1014,9 hPa 0,0 l/m 0 min 2 min 0 W/m 6,4 km/h (2 Bft) 100,00 %
17.02.2021 04:18 7,9 C 6,7 C 6,7 C 92 % 1015,0 hPa 0,0 l/m 0 min 2 min 0 W/m 6,4 km/h (2 Bft) 100,00 %
17.02.2021 04:20 7,9 C 6,7 C 6,7 C 92 % 1014,9 hPa 0,0 l/m 0 min 0 min 0 W/m 0,0 km/h (0 Bft) 100,00 %
17.02.2021 04:22 7,9 C 7,2 C 6,7 C 92 % 1015,0 hPa 0,0 l/m 0 min 2 min 0 W/m 0,0 km/h (0 Bft) 100,00 %
17.02.2021 04:24 7,9 C 7,2 C 6,7 C 92 % 1015,0 hPa 0,0 l/m 0 min 0 min 0 W/m 0,0 km/h (0 Bft) 100,00 %
17.02.2021 04:26 7,9 C 7,2 C 6,7 C 92 % 1015,0 hPa 0,0 l/m 0 min 0 min 0 W/m 0,0 km/h (0 Bft) 97,87 %
17.02.2021 04:28 7,9 C 7,2 C 6,7 C 92 % 1015,0 hPa 0,0 l/m 0 min 0 min 0 W/m 3,2 km/h (1 Bft) 95,65 %
17.02.2021 04:30 7,9 C 7,2 C 6,7 C 92 % 1015,0 hPa 0,0 l/m 0 min 0 min 0 W/m 0,0 km/h (0 Bft) 97,87 %
17.02.2021 04:32 7,9 C 7,2 C 6,7 C 92 % 1015,0 hPa 0,0 l/m 0 min 0 min 0 W/m 3,2 km/h (1 Bft) 97,92 %
17.02.2021 04:34 7,9 C 7,2 C 6,7 C 92 % 1015,0 hPa 0,0 l/m 0 min 0 min 0 W/m 0,0 km/h (0 Bft) 100,00 %
17.02.2021 04:36 7,9 C 7,2 C 6,7 C 92 % 1015,0 hPa 0,0 l/m 0 min 0 min 0 W/m 6,4 km/h (2 Bft) 97,87 %
17.02.2021 04:38 7,9 C 7,2 C 6,7 C 93 % 1015,0 hPa 0,0 l/m 0 min 0 min 0 W/m 0,0 km/h (0 Bft) 97,87 %
17.02.2021 04:40 7,9 C 7,2 C 6,7 C 93 % 1015,1 hPa 0,0 l/m 0 min 0 min 0 W/m 0,0 km/h (0 Bft) 95,65 %
17.02.2021 04:42 7,9 C 7,2 C 6,7 C 93 % 1015,1 hPa 0,0 l/m 0 min 0 min 0 W/m 0,0 km/h (0 Bft) 93,62 %
17.02.2021 04:44 7,9 C 7,2 C 6,7 C 93 % 1015,1 hPa 0,0 l/m 0 min 0 min 0 W/m 0,0 km/h (0 Bft) 100,00 %
17.02.2021 04:46 7,9 C 7,2 C 6,7 C 93 % 1015,0 hPa 0,0 l/m 0 min 0 min 0 W/m 3,2 km/h (1 Bft) 97,87 %
17.02.2021 04:48 7,9 C 7,2 C 6,7 C 93 % 1015,0 hPa 0,0 l/m 0 min 0 min 0 W/m 6,4 km/h (2 Bft) 97,87 %
17.02.2021 04:50 7,9 C 7,8 C 6,7 C 93 % 1015,0 hPa 0,0 l/m 0 min 0 min 0 W/m 25,7 km/h (4 Bft) 95,74 %
17.02.2021 04:52 7,9 C 7,2 C 6,7 C 93 % 1015,0 hPa 0,0 l/m 0 min 0 min 0 W/m 35,4 km/h (5 Bft) 97,83 %
17.02.2021 04:54 7,9 C 7,2 C 6,7 C 93 % 1014,9 hPa 0,0 l/m 0 min 0 min 0 W/m 0,0 km/h (0 Bft) 97,87 %
17.02.2021 04:56 7,9 C 7,2 C 6,7 C 93 % 1015,0 hPa 0,0 l/m 0 min 0 min 0 W/m 0,0 km/h (0 Bft) 95,74 %
17.02.2021 04:58 7,9 C 7,2 C 6,7 C 93 % 1015,0 hPa 0,0 l/m 0 min 0 min 0 W/m 0,0 km/h (0 Bft) 97,87 %
17.02.2021 05:00 7,9 C 7,2 C 6,7 C 93 % 1015,1 hPa 0,0 l/m 0 min 0 min 0 W/m 0,0 km/h (0 Bft) 95,74 %
17.02.2021 05:02 7,9 C 7,2 C 6,7 C 93 % 1015,1 hPa 0,0 l/m 0 min 0 min 0 W/m 3,2 km/h (1 Bft) 95,74 %
17.02.2021 05:04 7,9 C 7,2 C 6,7 C 93 % 1015,1 hPa 0,0 l/m 0 min 0 min 0 W/m 0,0 km/h (0 Bft) 97,83 %
17.02.2021 05:06 7,9 C 7,2 C 6,7 C 93 % 1015,1 hPa 0,0 l/m 0 min 0 min 0 W/m 0,0 km/h (0 Bft) 97,87 %
17.02.2021 05:08 7,9 C 7,2 C 6,7 C 93 % 1015,1 hPa 0,0 l/m 0 min 0 min 0 W/m 6,4 km/h (2 Bft) 97,87 %
17.02.2021 05:10 7,9 C 6,7 C 6,7 C 93 % 1015,1 hPa 0,0 l/m 0 min 0 min 0 W/m 6,4 km/h (2 Bft) 97,87 %
17.02.2021 05:12 7,9 C 6,7 C 6,1 C 93 % 1015,1 hPa 0,0 l/m 0 min 2 min 0 W/m 0,0 km/h (0 Bft) 97,87 %
17.02.2021 05:14 7,9 C 6,7 C 6,1 C 93 % 1015,1 hPa 0,0 l/m 0 min 0 min 0 W/m 22,5 km/h (4 Bft) 100,00 %
17.02.2021 05:16 7,9 C 6,7 C 6,1 C 93 % 1015,2 hPa 0,0 l/m 0 min 0 min 0 W/m 0,0 km/h (0 Bft) 100,00 %
17.02.2021 05:18 7,9 C 6,7 C 6,1 C 93 % 1015,2 hPa 0,0 l/m 0 min 0 min 0 W/m 0,0 km/h (0 Bft) 100,00 %
17.02.2021 05:20 7,9 C 7,2 C 6,1 C 93 % 1015,3 hPa 0,0 l/m 0 min 0 min 0 W/m 12,9 km/h (3 Bft) 100,00 %
17.02.2021 05:22 7,9 C 7,2 C 6,1 C 93 % 1015,3 hPa 0,0 l/m 0 min 0 min 0 W/m 0,0 km/h (0 Bft) 97,87 %
17.02.2021 05:24 7,9 C 7,2 C 6,7 C 93 % 1015,3 hPa 0,0 l/m 0 min 0 min 0 W/m 16,1 km/h (3 Bft) 95,74 %
17.02.2021 05:26 7,9 C 7,2 C 6,7 C 93 % 1015,3 hPa 0,0 l/m 0 min 0 min 0 W/m 0,0 km/h (0 Bft) 95,74 %
17.02.2021 05:28 7,9 C 7,2 C 6,7 C 93 % 1015,3 hPa 0,0 l/m 0 min 0 min 0 W/m 6,4 km/h (2 Bft) 97,83 %
17.02.2021 05:30 7,9 C 7,2 C 6,7 C 93 % 1015,4 hPa 0,0 l/m 0 min 0 min 0 W/m 0,0 km/h (0 Bft) 97,87 %
17.02.2021 05:32 7,9 C 7,2 C 6,7 C 93 % 1015,3 hPa 0,0 l/m 0 min 0 min 0 W/m 3,2 km/h (1 Bft) 97,92 %
17.02.2021 05:34 7,9 C 7,2 C 6,7 C 93 % 1015,4 hPa 0,0 l/m 0 min 0 min 0 W/m 0,0 km/h (0 Bft) 95,74 %
17.02.2021 05:36 7,9 C 7,2 C 6,7 C 93 % 1015,4 hPa 0,0 l/m 0 min 0 min 0 W/m 3,2 km/h (1 Bft) 97,87 %
17.02.2021 05:38 7,9 C 7,2 C 6,7 C 93 % 1015,4 hPa 0,0 l/m 0 min 0 min 0 W/m 0,0 km/h (0 Bft) 97,87 %
17.02.2021 05:40 7,9 C 7,2 C 6,7 C 93 % 1015,4 hPa 0,0 l/m 0 min 0 min 0 W/m 0,0 km/h (0 Bft) 97,83 %
17.02.2021 05:42 7,9 C 7,2 C 6,7 C 93 % 1015,4 hPa 0,0 l/m 0 min 0 min 0 W/m 0,0 km/h (0 Bft) 95,74 %
17.02.2021 05:44 7,9 C 7,2 C 6,7 C 93 % 1015,4 hPa 0,0 l/m 0 min 0 min 0 W/m 0,0 km/h (0 Bft) 97,87 %
17.02.2021 05:46 7,9 C 7,2 C 6,7 C 93 % 1015,4 hPa 0,0 l/m 0 min 0 min 0 W/m 0,0 km/h (0 Bft) 95,74 %
17.02.2021 05:48 7,9 C 7,2 C 6,7 C 93 % 1015,5 hPa 0,0 l/m 0 min 0 min 0 W/m 0,0 km/h (0 Bft) 97,87 %
17.02.2021 05:50 7,9 C 7,2 C 6,7 C 93 % 1015,5 hPa 0,0 l/m 0 min 0 min 0 W/m 0,0 km/h (0 Bft) 97,83 %
17.02.2021 05:52 7,9 C 7,2 C 6,7 C 93 % 1015,5 hPa 0,0 l/m 0 min 0 min 0 W/m 3,2 km/h (1 Bft) 95,74 %
17.02.2021 05:54 7,9 C 7,2 C 6,7 C 93 % 1015,6 hPa 0,0 l/m 0 min 0 min 0 W/m 6,4 km/h (2 Bft) 97,87 %
17.02.2021 05:56 7,9 C 7,2 C 6,7 C 93 % 1015,5 hPa 0,0 l/m 0 min 0 min 0 W/m 3,2 km/h (1 Bft) 97,87 %
17.02.2021 05:58 7,9 C 7,2 C 6,7 C 93 % 1015,5 hPa 0,0 l/m 0 min 0 min 0 W/m 0,0 km/h (0 Bft) 97,87 %
17.02.2021 06:00 7,9 C 7,2 C 6,7 C 93 % 1015,5 hPa 0,0 l/m 0 min 0 min 0 W/m 0,0 km/h (0 Bft) 95,74 %
17.02.2021 06:02 7,9 C 7,2 C 6,7 C 93 % 1015,5 hPa 0,0 l/m 0 min 0 min 0 W/m 0,0 km/h (0 Bft) 91,49 %
17.02.2021 06:04 7,9 C 7,2 C 6,7 C 93 % 1015,5 hPa 0,0 l/m 0 min 0 min 0 W/m 0,0 km/h (0 Bft) 95,74 %
17.02.2021 06:08 7,9 C 7,2 C 6,7 C 93 % 1015,5 hPa 0,0 l/m 0 min 0 min 0 W/m 6,4 km/h (2 Bft) 96,91 %
17.02.2021 06:10 7,9 C 7,2 C 6,7 C 93 % 1015,5 hPa 0,0 l/m 0 min 0 min 0 W/m 3,2 km/h (1 Bft) 93,62 %
17.02.2021 06:12 7,9 C 7,2 C 6,7 C 93 % 1015,6 hPa 0,0 l/m 0 min 0 min 0 W/m 0,0 km/h (0 Bft) 93,48 %
17.02.2021 06:14 7,9 C 7,2 C 6,7 C 93 % 1015,6 hPa 0,0 l/m 0 min 0 min 0 W/m 0,0 km/h (0 Bft) 95,56 %
17.02.2021 06:16 7,9 C 7,2 C 6,7 C 93 % 1015,6 hPa 0,0 l/m 0 min 0 min 0 W/m 3,2 km/h (1 Bft) 95,74 %
17.02.2021 06:18 7,9 C 7,2 C 6,7 C 93 % 1015,7 hPa 0,0 l/m 0 min 0 min 0 W/m 0,0 km/h (0 Bft) 93,62 %
17.02.2021 06:20 7,9 C 7,2 C 6,7 C 93 % 1015,8 hPa 0,0 l/m 0 min 0 min 0 W/m 0,0 km/h (0 Bft) 95,74 %
17.02.2021 06:22 7,9 C 7,2 C 6,7 C 93 % 1015,7 hPa 0,0 l/m 0 min 0 min 0 W/m 0,0 km/h (0 Bft) 95,74 %
17.02.2021 06:24 7,9 C 7,2 C 6,7 C 93 % 1015,7 hPa 0,0 l/m 0 min 0 min 0 W/m 0,0 km/h (0 Bft) 93,62 %
17.02.2021 06:26 7,9 C 7,2 C 6,7 C 93 % 1015,7 hPa 0,0 l/m 0 min 0 min 0 W/m 0,0 km/h (0 Bft) 93,48 %
17.02.2021 06:28 7,9 C 7,2 C 6,7 C 93 % 1015,7 hPa 0,0 l/m 0 min 0 min 0 W/m 0,0 km/h (0 Bft) 95,74 %
17.02.2021 06:30 7,9 C 7,2 C 6,7 C 93 % 1015,8 hPa 0,0 l/m 0 min 0 min 0 W/m 0,0 km/h (0 Bft) 93,62 %
17.02.2021 06:32 7,9 C 7,2 C 6,7 C 93 % 1015,7 hPa 0,0 l/m 0 min 0 min 0 W/m 0,0 km/h (0 Bft) 95,74 %
17.02.2021 06:34 7,9 C 7,2 C 6,7 C 92 % 1015,8 hPa 0,0 l/m 0 min 0 min 0 W/m 0,0 km/h (0 Bft) 95,74 %
17.02.2021 06:36 7,9 C 7,2 C 6,7 C 92 % 1015,8 hPa 0,0 l/m 0 min 0 min 0 W/m 0,0 km/h (0 Bft) 95,74 %
17.02.2021 06:38 7,9 C 7,2 C 6,7 C 92 % 1015,8 hPa 0,0 l/m 0 min 0 min 0 W/m 0,0 km/h (0 Bft) 95,65 %
17.02.2021 06:40 7,9 C 7,2 C 6,7 C 92 % 1015,9 hPa 0,0 l/m 0 min 0 min 0 W/m 0,0 km/h (0 Bft) 95,74 %
17.02.2021 06:42 7,9 C 7,2 C 6,7 C 92 % 1015,9 hPa 0,0 l/m 0 min 0 min 0 W/m 6,4 km/h (2 Bft) 95,74 %
17.02.2021 06:44 7,9 C 7,2 C 6,7 C 92 % 1015,9 hPa 0,0 l/m 0 min 0 min 0 W/m 0,0 km/h (0 Bft) 95,74 %
17.02.2021 06:46 7,9 C 7,2 C 6,7 C 92 % 1015,8 hPa 0,0 l/m 0 min 0 min 0 W/m 0,0 km/h (0 Bft) 95,74 %
17.02.2021 06:48 7,9 C 7,2 C 6,7 C 92 % 1015,8 hPa 0,0 l/m 0 min 0 min 0 W/m 0,0 km/h (0 Bft) 95,74 %
17.02.2021 06:50 7,9 C 7,2 C 6,7 C 92 % 1015,9 hPa 0,0 l/m 0 min 0 min 0 W/m 0,0 km/h (0 Bft) 95,65 %
17.02.2021 06:52 7,9 C 7,2 C 6,7 C 92 % 1015,9 hPa 0,0 l/m 0 min 0 min 0 W/m 0,0 km/h (0 Bft) 95,74 %
17.02.2021 06:54 7,9 C 7,2 C 6,7 C 92 % 1015,9 hPa 0,0 l/m 0 min 0 min 0 W/m 0,0 km/h (0 Bft) 95,74 %
17.02.2021 06:56 7,9 C 7,2 C 6,7 C 92 % 1015,9 hPa 0,0 l/m 0 min 0 min 0 W/m 0,0 km/h (0 Bft) 95,74 %
17.02.2021 06:58 7,9 C 7,2 C 6,7 C 92 % 1015,9 hPa 0,0 l/m 0 min 0 min 0 W/m 6,4 km/h (2 Bft) 97,87 %
17.02.2021 07:00 7,9 C 7,2 C 6,7 C 92 % 1015,9 hPa 0,0 l/m 0 min 0 min 0 W/m 0,0 km/h (0 Bft) 97,87 %
17.02.2021 07:02 7,9 C 7,2 C 6,7 C 92 % 1015,9 hPa 0,0 l/m 0 min 0 min 0 W/m 12,9 km/h (3 Bft) 97,92 %
17.02.2021 07:04 7,9 C 7,2 C 6,7 C 92 % 1016,0 hPa 0,0 l/m 0 min 0 min 0 W/m 0,0 km/h (0 Bft) 100,00 %
17.02.2021 07:06 7,8 C 7,2 C 6,7 C 92 % 1015,9 hPa 0,0 l/m 0 min 0 min 0 W/m 0,0 km/h (0 Bft) 100,00 %
17.02.2021 07:08 7,8 C 7,2 C 6,7 C 92 % 1015,9 hPa 0,0 l/m 0 min 0 min 0 W/m 0,0 km/h (0 Bft) 100,00 %
17.02.2021 07:10 7,8 C 7,2 C 6,7 C 92 % 1016,0 hPa 0,0 l/m 0 min 0 min 0 W/m 3,2 km/h (1 Bft) 100,00 %
17.02.2021 07:12 7,8 C 7,2 C 6,7 C 92 % 1016,0 hPa 0,0 l/m 0 min 0 min 0 W/m 0,0 km/h (0 Bft) 97,83 %
17.02.2021 07:14 7,8 C 7,2 C 6,7 C 92 % 1016,0 hPa 0,0 l/m 0 min 0 min 0 W/m 0,0 km/h (0 Bft) 100,00 %
17.02.2021 07:16 7,8 C 7,2 C 6,7 C 92 % 1016,1 hPa 0,0 l/m 0 min 0 min 0 W/m 3,2 km/h (1 Bft) 93,62 %
17.02.2021 07:18 7,8 C 7,2 C 6,7 C 92 % 1016,1 hPa 0,0 l/m 0 min 0 min 0 W/m 0,0 km/h (0 Bft) 95,74 %
17.02.2021 07:20 7,8 C 7,2 C 6,7 C 92 % 1016,1 hPa 0,0 l/m 0 min 0 min 0 W/m 0,0 km/h (0 Bft) 87,23 %
17.02.2021 07:22 7,8 C 7,2 C 6,7 C 92 % 1016,1 hPa 0,0 l/m 0 min 0 min 0 W/m 0,0 km/h (0 Bft) 28,57 %
17.02.2021 07:24 7,7 C 7,2 C 6,7 C 92 % 1016,1 hPa 0,0 l/m 0 min 0 min 0 W/m 0,0 km/h (0 Bft) 93,62 %
17.02.2021 07:26 7,7 C 7,2 C 6,1 C 92 % 1016,1 hPa 0,0 l/m 0 min 0 min 0 W/m 0,0 km/h (0 Bft) 95,74 %
17.02.2021 07:28 7,6 C 7,2 C 6,7 C 92 % 1016,1 hPa 0,0 l/m 0 min 0 min 0 W/m 0,0 km/h (0 Bft) 97,73 %
17.02.2021 07:30 7,6 C 7,2 C 6,1 C 93 % 1016,0 hPa 0,0 l/m 0 min 0 min 0 W/m 0,0 km/h (0 Bft) 97,92 %
17.02.2021 07:32 7,6 C 7,2 C 6,1 C 93 % 1016,1 hPa 0,0 l/m 0 min 0 min 0 W/m 19,3 km/h (3 Bft) 93,75 %
17.02.2021 07:34 7,6 C 6,7 C 6,1 C 93 % 1016,1 hPa 0,0 l/m 0 min 0 min 0 W/m 0,0 km/h (0 Bft) 95,74 %
17.02.2021 07:36 7,6 C 6,7 C 6,1 C 93 % 1016,1 hPa 0,0 l/m 0 min 0 min 0 W/m 0,0 km/h (0 Bft) 97,83 %
17.02.2021 07:38 7,6 C 7,2 C 6,1 C 93 % 1016,1 hPa 0,0 l/m 0 min 0 min 0 W/m 0,0 km/h (0 Bft) 97,92 %
17.02.2021 07:40 7,6 C 6,7 C 6,1 C 93 % 1016,1 hPa 0,0 l/m 0 min 0 min 0 W/m 0,0 km/h (0 Bft) 97,87 %
17.02.2021 07:42 7,6 C 6,7 C 6,1 C 93 % 1016,2 hPa 0,0 l/m 0 min 0 min 0 W/m 0,0 km/h (0 Bft) 95,74 %
17.02.2021 07:44 7,5 C 6,7 C 6,1 C 93 % 1016,2 hPa 0,0 l/m 0 min 0 min 0 W/m 0,0 km/h (0 Bft) 95,74 %
17.02.2021 07:46 7,5 C 6,7 C 6,1 C 93 % 1016,2 hPa 0,0 l/m 0 min 0 min 0 W/m 3,2 km/h (1 Bft) 97,83 %
17.02.2021 07:48 7,5 C 6,7 C 6,1 C 93 % 1016,3 hPa 0,0 l/m 0 min 0 min 0 W/m 0,0 km/h (0 Bft) 97,87 %
17.02.2021 07:50 7,5 C 6,7 C 6,1 C 93 % 1016,3 hPa 0,0 l/m 0 min 0 min 0 W/m 0,0 km/h (0 Bft) 91,49 %
17.02.2021 07:52 7,5 C 6,7 C 6,1 C 93 % 1016,3 hPa 0,0 l/m 0 min 0 min 0 W/m 0,0 km/h (0 Bft) 95,74 %
17.02.2021 07:54 7,5 C 6,7 C 6,1 C 93 % 1016,4 hPa 0,0 l/m 0 min 0 min 0 W/m 3,2 km/h (1 Bft) 97,56 %
17.02.2021 07:56 7,5 C 6,7 C 6,1 C 93 % 1016,4 hPa 0,0 l/m 0 min 0 min 0 W/m 0,0 km/h (0 Bft) 97,96 %
17.02.2021 07:58 7,5 C 6,7 C 6,1 C 93 % 1016,4 hPa 0,0 l/m 0 min 0 min 4 W/m 0,0 km/h (0 Bft) 97,87 %
17.02.2021 08:00 7,5 C 7,2 C 6,1 C 93 % 1016,5 hPa 0,0 l/m 0 min 0 min 5 W/m 0,0 km/h (0 Bft) 97,92 %
17.02.2021 08:02 7,5 C 6,7 C 6,1 C 93 % 1016,4 hPa 0,0 l/m 0 min 0 min 5 W/m 0,0 km/h (0 Bft) 91,30 %
17.02.2021 08:04 7,5 C 7,2 C 6,1 C 93 % 1016,5 hPa 0,0 l/m 0 min 0 min 7 W/m 3,2 km/h (1 Bft) 97,87 %
17.02.2021 08:06 7,5 C 7,2 C 6,7 C 93 % 1016,5 hPa 0,0 l/m 0 min 0 min 7 W/m 0,0 km/h (0 Bft) 100,00 %
17.02.2021 08:08 7,5 C 7,2 C 6,7 C 93 % 1016,5 hPa 0,0 l/m 0 min 0 min 10 W/m 0,0 km/h (0 Bft) 100,00 %
17.02.2021 08:10 7,5 C 7,2 C 6,7 C 93 % 1016,5 hPa 0,0 l/m 0 min 0 min 11 W/m 3,2 km/h (1 Bft) 97,87 %
17.02.2021 08:12 7,5 C 7,2 C 6,7 C 93 % 1016,6 hPa 0,0 l/m 0 min 0 min 11 W/m 0,0 km/h (0 Bft) 95,65 %
17.02.2021 08:14 7,5 C 7,2 C 6,7 C 93 % 1016,6 hPa 0,0 l/m 0 min 0 min 12 W/m 3,2 km/h (1 Bft) 95,74 %
17.02.2021 08:16 7,5 C 7,2 C 6,7 C 93 % 1016,5 hPa 0,0 l/m 0 min 0 min 16 W/m 0,0 km/h (0 Bft) 97,56 %
17.02.2021 08:18 7,5 C 7,2 C 6,7 C 93 % 1016,6 hPa 0,0 l/m 0 min 0 min 15 W/m 0,0 km/h (0 Bft) 100,00 %
17.02.2021 08:20 7,5 C 7,2 C 6,7 C 93 % 1016,6 hPa 0,0 l/m 0 min 0 min 18 W/m 0,0 km/h (0 Bft) 100,00 %
17.02.2021 08:22 7,6 C 7,2 C 6,7 C 93 % 1016,5 hPa 0,0 l/m 0 min 0 min 19 W/m 3,2 km/h (1 Bft) 95,74 %
17.02.2021 08:24 7,6 C 7,2 C 6,7 C 93 % 1016,5 hPa 0,0 l/m 0 min 0 min 21 W/m 6,4 km/h (2 Bft) 100,00 %
17.02.2021 08:26 7,6 C 7,2 C 6,7 C 93 % 1016,5 hPa 0,0 l/m 0 min 0 min 18 W/m 0,0 km/h (0 Bft) 97,87 %
17.02.2021 08:28 7,6 C 7,2 C 6,7 C 93 % 1016,5 hPa 0,0 l/m 0 min 0 min 19 W/m 0,0 km/h (0 Bft) 100,00 %
17.02.2021 08:30 7,7 C 7,2 C 6,7 C 93 % 1016,6 hPa 0,0 l/m 0 min 0 min 22 W/m 0,0 km/h (0 Bft) 100,00 %
17.02.2021 08:32 7,7 C 7,2 C 6,7 C 93 % 1016,6 hPa 0,0 l/m 0 min 0 min 18 W/m 0,0 km/h (0 Bft) 100,00 %
17.02.2021 08:34 7,7 C 7,2 C 6,7 C 93 % 1016,6 hPa 0,0 l/m 0 min 0 min 17 W/m 3,2 km/h (1 Bft) 100,00 %
17.02.2021 08:36 7,7 C 7,2 C 6,7 C 93 % 1016,6 hPa 0,0 l/m 0 min 0 min 19 W/m 6,4 km/h (2 Bft) 100,00 %
17.02.2021 08:38 7,7 C 7,2 C 6,7 C 93 % 1016,7 hPa 0,0 l/m 0 min 0 min 16 W/m 0,0 km/h (0 Bft) 97,87 %
17.02.2021 08:40 7,7 C 7,2 C 6,7 C 93 % 1016,7 hPa 0,0 l/m 0 min 0 min 17 W/m 0,0 km/h (0 Bft) 100,00 %
17.02.2021 08:42 7,7 C 7,2 C 6,7 C 93 % 1016,7 hPa 0,0 l/m 0 min 0 min 26 W/m 0,0 km/h (0 Bft) 100,00 %
17.02.2021 08:44 7,8 C 7,2 C 6,7 C 93 % 1016,8 hPa 0,0 l/m 0 min 0 min 37 W/m 0,0 km/h (0 Bft) 97,87 %
17.02.2021 08:46 7,8 C 7,2 C 6,7 C 93 % 1016,8 hPa 0,0 l/m 0 min 0 min 31 W/m 0,0 km/h (0 Bft) 97,87 %
17.02.2021 08:48 7,8 C 7,2 C 6,7 C 93 % 1016,7 hPa 0,0 l/m 0 min 0 min 33 W/m 0,0 km/h (0 Bft) 95,65 %
17.02.2021 08:50 7,8 C 7,2 C 6,7 C 93 % 1016,8 hPa 0,0 l/m 0 min 0 min 47 W/m 0,0 km/h (0 Bft) 97,87 %
17.02.2021 08:52 7,8 C 7,8 C 7,3 C 93 % 1016,8 hPa 0,0 l/m 0 min 0 min 43 W/m 3,2 km/h (1 Bft) 100,00 %
17.02.2021 08:54 7,8 C 7,8 C 7,3 C 93 % 1016,8 hPa 0,0 l/m 0 min 0 min 37 W/m 0,0 km/h (0 Bft) 100,00 %
17.02.2021 08:56 7,8 C 7,8 C 7,3 C 93 % 1016,9 hPa 0,0 l/m 0 min 0 min 34 W/m 0,0 km/h (0 Bft) 97,87 %
17.02.2021 08:58 7,9 C 7,8 C 7,3 C 93 % 1016,9 hPa 0,0 l/m 0 min 0 min 38 W/m 0,0 km/h (0 Bft) 97,87 %
17.02.2021 09:00 7,9 C 7,8 C 7,3 C 93 % 1016,8 hPa 0,0 l/m 0 min 0 min 49 W/m 0,0 km/h (0 Bft) 97,83 %
17.02.2021 09:02 7,9 C 7,8 C 7,3 C 93 % 1016,8 hPa 0,0 l/m 0 min 0 min 50 W/m 0,0 km/h (0 Bft) 97,87 %
17.02.2021 09:04 7,9 C 7,8 C 7,3 C 93 % 1016,9 hPa 0,0 l/m 0 min 0 min 59 W/m 3,2 km/h (1 Bft) 97,87 %
17.02.2021 09:06 8,0 C 7,8 C 7,3 C 93 % 1016,9 hPa 0,0 l/m 0 min 0 min 53 W/m 0,0 km/h (0 Bft) 97,87 %
17.02.2021 09:08 8,0 C 7,8 C 7,3 C 93 % 1016,9 hPa 0,0 l/m 0 min 0 min 53 W/m 0,0 km/h (0 Bft) 97,87 %
17.02.2021 09:10 8,0 C 7,8 C 7,3 C 93 % 1016,9 hPa 0,0 l/m 0 min 0 min 52 W/m 0,0 km/h (0 Bft) 97,87 %
17.02.2021 09:12 8,0 C 7,8 C 7,3 C 93 % 1017,0 hPa 0,0 l/m 0 min 0 min 48 W/m 3,2 km/h (1 Bft) 97,83 %
17.02.2021 09:14 8,0 C 7,8 C 7,3 C 93 % 1016,8 hPa 0,0 l/m 0 min 0 min 48 W/m 0,0 km/h (0 Bft) 97,87 %
17.02.2021 09:16 8,0 C 7,8 C 7,3 C 93 % 1016,9 hPa 0,0 l/m 0 min 0 min 53 W/m 19,3 km/h (3 Bft) 97,87 %
17.02.2021 09:18 8,1 C 7,8 C 7,3 C 93 % 1016,9 hPa 0,0 l/m 0 min 0 min 52 W/m 0,0 km/h (0 Bft) 97,87 %
17.02.2021 09:20 8,1 C 7,8 C 7,3 C 92 % 1016,9 hPa 0,0 l/m 0 min 0 min 53 W/m 0,0 km/h (0 Bft) 97,87 %
17.02.2021 09:22 8,1 C 7,8 C 7,3 C 92 % 1017,0 hPa 0,0 l/m 0 min 0 min 41 W/m 0,0 km/h (0 Bft) 95,74 %
17.02.2021 09:24 8,1 C 7,8 C 7,3 C 92 % 1017,0 hPa 0,0 l/m 0 min 0 min 31 W/m 3,2 km/h (1 Bft) 97,83 %
17.02.2021 09:26 8,2 C 7,8 C 7,3 C 92 % 1017,0 hPa 0,0 l/m 0 min 0 min 40 W/m 0,0 km/h (0 Bft) 97,87 %
17.02.2021 09:28 8,2 C 7,8 C 7,3 C 92 % 1017,0 hPa 0,0 l/m 0 min 0 min 41 W/m 0,0 km/h (0 Bft) 97,87 %
17.02.2021 09:30 8,3 C 7,8 C 7,3 C 92 % 1017,1 hPa 0,0 l/m 0 min 0 min 40 W/m 3,2 km/h (1 Bft) 97,87 %
17.02.2021 09:32 8,3 C 7,8 C 7,3 C 92 % 1017,1 hPa 0,0 l/m 0 min 0 min 44 W/m 0,0 km/h (0 Bft) 97,87 %
17.02.2021 09:34 8,3 C 7,8 C 7,3 C 92 % 1017,1 hPa 0,0 l/m 0 min 0 min 40 W/m 3,2 km/h (1 Bft) 97,87 %
17.02.2021 09:36 8,3 C 7,8 C 7,3 C 92 % 1017,1 hPa 0,0 l/m 0 min 0 min 41 W/m 0,0 km/h (0 Bft) 95,65 %
17.02.2021 09:38 8,3 C 7,8 C 7,3 C 92 % 1017,1 hPa 0,0 l/m 0 min 0 min 73 W/m 0,0 km/h (0 Bft) 95,74 %
17.02.2021 09:40 8,3 C 8,3 C 7,8 C 92 % 1017,1 hPa 0,0 l/m 0 min 0 min 125 W/m 0,0 km/h (0 Bft) 97,87 %
17.02.2021 09:42 8,4 C 8,3 C 7,8 C 92 % 1017,2 hPa 0,0 l/m 0 min 0 min 128 W/m 0,0 km/h (0 Bft) 95,74 %
17.02.2021 09:44 8,4 C 8,3 C 7,8 C 91 % 1017,2 hPa 0,0 l/m 0 min 0 min 94 W/m 6,4 km/h (2 Bft) 97,87 %
17.02.2021 09:46 8,4 C 8,3 C 7,8 C 91 % 1017,1 hPa 0,0 l/m 0 min 0 min 86 W/m 0,0 km/h (0 Bft) 100,00 %
17.02.2021 09:48 8,5 C 8,3 C 7,8 C 92 % 1017,2 hPa 0,0 l/m 0 min 0 min 90 W/m 3,2 km/h (1 Bft) 97,83 %
17.02.2021 09:50 8,5 C 8,3 C 7,8 C 91 % 1017,1 hPa 0,0 l/m 0 min 0 min 84 W/m 0,0 km/h (0 Bft) 100,00 %
17.02.2021 09:52 8,5 C 8,3 C 7,8 C 91 % 1017,1 hPa 0,0 l/m 0 min 0 min 89 W/m 12,9 km/h (3 Bft) 97,87 %
17.02.2021 09:54 8,5 C 8,3 C 7,8 C 91 % 1017,2 hPa 0,0 l/m 0 min 0 min 84 W/m 3,2 km/h (1 Bft) 97,87 %
17.02.2021 09:56 8,5 C 8,3 C 7,8 C 91 % 1017,2 hPa 0,0 l/m 0 min 0 min 82 W/m 0,0 km/h (0 Bft) 100,00 %
17.02.2021 09:58 8,6 C 8,3 C 7,8 C 91 % 1017,1 hPa 0,0 l/m 0 min 0 min 76 W/m 0,0 km/h (0 Bft) 100,00 %
17.02.2021 10:00 8,6 C 8,3 C 7,8 C 91 % 1017,1 hPa 0,0 l/m 0 min 0 min 75 W/m 0,0 km/h (0 Bft) 100,00 %
17.02.2021 10:02 8,6 C 8,3 C 7,8 C 91 % 1017,2 hPa 0,0 l/m 0 min 0 min 73 W/m 6,4 km/h (2 Bft) 97,87 %
17.02.2021 10:04 8,6 C 8,3 C 7,8 C 91 % 1017,2 hPa 0,0 l/m 0 min 0 min 84 W/m 0,0 km/h (0 Bft) 97,87 %
17.02.2021 10:06 8,6 C 8,3 C 7,8 C 91 % 1017,2 hPa 0,0 l/m 0 min 0 min 101 W/m 3,2 km/h (1 Bft) 95,74 %
17.02.2021 10:08 8,7 C 8,9 C 8,4 C 91 % 1017,2 hPa 0,0 l/m 0 min 0 min 93 W/m 0,0 km/h (0 Bft) 97,87 %
17.02.2021 10:10 8,7 C 8,9 C 8,4 C 91 % 1017,2 hPa 0,0 l/m 0 min 0 min 109 W/m 0,0 km/h (0 Bft) 97,83 %
17.02.2021 10:12 8,8 C 8,9 C 8,4 C 91 % 1017,2 hPa 0,0 l/m 0 min 0 min 116 W/m 0,0 km/h (0 Bft) 97,87 %
17.02.2021 10:14 8,8 C 8,9 C 8,4 C 91 % 1017,2 hPa 0,0 l/m 0 min 0 min 106 W/m 0,0 km/h (0 Bft) 95,74 %
17.02.2021 10:16 8,8 C 8,9 C 8,4 C 90 % 1017,2 hPa 0,0 l/m 0 min 0 min 124 W/m 6,4 km/h (2 Bft) 97,87 %
17.02.2021 10:18 8,9 C 8,9 C 8,4 C 90 % 1017,2 hPa 0,0 l/m 0 min 0 min 132 W/m 19,3 km/h (3 Bft) 98,21 %
17.02.2021 10:20 8,9 C 8,9 C 8,4 C 90 % 1017,3 hPa 0,0 l/m 0 min 0 min 103 W/m 3,2 km/h (1 Bft) 97,87 %
17.02.2021 10:22 8,9 C 8,9 C 8,4 C 90 % 1017,3 hPa 0,0 l/m 0 min 0 min 108 W/m 25,7 km/h (4 Bft) 97,83 %
17.02.2021 10:24 9,0 C 8,9 C 8,4 C 90 % 1017,3 hPa 0,0 l/m 0 min 0 min 118 W/m 3,2 km/h (1 Bft) 95,74 %
17.02.2021 10:26 9,0 C 8,9 C 8,4 C 90 % 1017,3 hPa 0,0 l/m 0 min 0 min 134 W/m 0,0 km/h (0 Bft) 97,87 %
17.02.2021 10:28 9,0 C 8,9 C 8,4 C 90 % 1017,3 hPa 0,0 l/m 0 min 0 min 113 W/m 0,0 km/h (0 Bft) 93,62 %
17.02.2021 10:30 9,0 C 8,9 C 8,4 C 90 % 1017,4 hPa 0,0 l/m 0 min 0 min 102 W/m 6,4 km/h (2 Bft) 95,74 %
17.02.2021 10:32 9,1 C 8,9 C 8,4 C 90 % 1017,3 hPa 0,0 l/m 0 min 0 min 133 W/m 0,0 km/h (0 Bft) 97,87 %
17.02.2021 10:34 9,1 C 9,4 C 8,4 C 90 % 1017,3 hPa 0,0 l/m 0 min 0 min 154 W/m 0,0 km/h (0 Bft) 93,48 %
17.02.2021 10:36 9,1 C 9,4 C 8,4 C 90 % 1017,3 hPa 0,0 l/m 0 min 0 min 131 W/m 3,2 km/h (1 Bft) 97,87 %
17.02.2021 10:38 9,1 C 9,4 C 8,4 C 90 % 1017,4 hPa 0,0 l/m 0 min 0 min 96 W/m 0,0 km/h (0 Bft) 95,74 %
17.02.2021 10:40 9,2 C 9,4 C 8,4 C 90 % 1017,4 hPa 0,0 l/m 0 min 0 min 112 W/m 0,0 km/h (0 Bft) 97,87 %
17.02.2021 10:42 9,2 C 8,9 C 8,4 C 89 % 1017,4 hPa 0,0 l/m 0 min 0 min 112 W/m 12,9 km/h (3 Bft) 97,87 %
17.02.2021 10:44 9,3 C 8,9 C 8,4 C 89 % 1017,4 hPa 0,0 l/m 0 min 0 min 123 W/m 16,1 km/h (3 Bft) 100,00 %
17.02.2021 10:46 9,3 C 9,4 C 8,4 C 89 % 1017,4 hPa 0,0 l/m 0 min 0 min 114 W/m 0,0 km/h (0 Bft) 97,87 %
17.02.2021 10:48 9,3 C 9,4 C 8,4 C 89 % 1017,3 hPa 0,0 l/m 0 min 0 min 124 W/m 3,2 km/h (1 Bft) 100,00 %
17.02.2021 10:50 9,3 C 9,4 C 8,4 C 89 % 1017,3 hPa 0,0 l/m 0 min 0 min 120 W/m 0,0 km/h (0 Bft) 100,00 %
17.02.2021 10:52 9,3 C 9,4 C 8,4 C 89 % 1017,3 hPa 0,0 l/m 0 min 0 min 96 W/m 0,0 km/h (0 Bft) 97,87 %
17.02.2021 10:54 9,3 C 9,4 C 8,4 C 89 % 1017,3 hPa 0,0 l/m 0 min 0 min 100 W/m 6,4 km/h (2 Bft) 100,00 %
17.02.2021 10:56 9,4 C 9,4 C 8,4 C 89 % 1017,4 hPa 0,0 l/m 0 min 0 min 83 W/m 12,9 km/h (3 Bft) 100,00 %
17.02.2021 10:58 9,4 C 9,4 C 8,4 C 89 % 1017,4 hPa 0,0 l/m 0 min 0 min 80 W/m 3,2 km/h (1 Bft) 97,83 %
17.02.2021 11:00 9,4 C 9,4 C 8,4 C 89 % 1017,4 hPa 0,0 l/m 0 min 0 min 103 W/m 0,0 km/h (0 Bft) 100,00 %
17.02.2021 11:02 9,4 C 9,4 C 8,4 C 89 % 1017,4 hPa 0,0 l/m 0 min 0 min 93 W/m 0,0 km/h (0 Bft) 97,87 %
17.02.2021 11:04 9,4 C 9,4 C 8,4 C 89 % 1017,4 hPa 0,0 l/m 0 min 0 min 97 W/m 0,0 km/h (0 Bft) 95,74 %
17.02.2021 11:06 9,5 C 9,4 C 8,4 C 89 % 1017,4 hPa 0,0 l/m 0 min 0 min 94 W/m 0,0 km/h (0 Bft) 97,87 %
17.02.2021 11:08 9,5 C 9,4 C 8,4 C 88 % 1017,3 hPa 0,0 l/m 0 min 0 min 79 W/m 0,0 km/h (0 Bft) 97,83 %
17.02.2021 11:10 9,5 C 9,4 C 8,4 C 88 % 1017,4 hPa 0,0 l/m 0 min 0 min 91 W/m 0,0 km/h (0 Bft) 97,87 %
17.02.2021 11:12 9,5 C 9,4 C 8,4 C 88 % 1017,3 hPa 0,0 l/m 0 min 0 min 85 W/m 16,1 km/h (3 Bft) 97,87 %
17.02.2021 11:14 9,5 C 9,4 C 8,4 C 88 % 1017,3 hPa 0,0 l/m 0 min 0 min 79 W/m 3,2 km/h (1 Bft) 97,87 %
17.02.2021 11:16 9,5 C 9,4 C 8,4 C 88 % 1017,3 hPa 0,0 l/m 0 min 0 min 78 W/m 0,0 km/h (0 Bft) 97,87 %
17.02.2021 11:18 9,6 C 10,0 C 8,9 C 88 % 1017,3 hPa 0,0 l/m 0 min 0 min 108 W/m 0,0 km/h (0 Bft) 93,62 %
17.02.2021 11:20 9,6 C 10,0 C 8,9 C 88 % 1017,4 hPa 0,0 l/m 0 min 0 min 154 W/m 0,0 km/h (0 Bft) 95,74 %
17.02.2021 11:22 9,7 C 10,0 C 8,9 C 88 % 1017,4 hPa 0,0 l/m 0 min 0 min 179 W/m 3,2 km/h (1 Bft) 97,83 %
17.02.2021 11:24 9,8 C 10,6 C 9,5 C 88 % 1017,4 hPa 0,0 l/m 2 min 0 min 289 W/m 22,5 km/h (4 Bft) 97,87 %
17.02.2021 11:26 9,9 C 10,0 C 9,5 C 88 % 1017,4 hPa 0,0 l/m 0 min 0 min 196 W/m 9,7 km/h (2 Bft) 97,87 %
17.02.2021 11:28 9,9 C 10,0 C 9,5 C 87 % 1017,5 hPa 0,0 l/m 0 min 0 min 149 W/m 0,0 km/h (0 Bft) 97,87 %
17.02.2021 11:30 10,0 C 10,6 C 9,5 C 87 % 1017,4 hPa 0,0 l/m 0 min 0 min 179 W/m 16,1 km/h (3 Bft) 97,87 %
17.02.2021 11:32 10,0 C 10,6 C 9,5 C 87 % 1017,5 hPa 0,0 l/m 0 min 0 min 184 W/m 6,4 km/h (2 Bft) 97,83 %
17.02.2021 11:34 10,1 C 10,6 C 9,5 C 87 % 1017,5 hPa 0,0 l/m 0 min 0 min 160 W/m 3,2 km/h (1 Bft) 97,87 %
17.02.2021 11:36 10,1 C 10,6 C 9,5 C 87 % 1017,6 hPa 0,0 l/m 0 min 0 min 136 W/m 3,2 km/h (1 Bft) 97,87 %
17.02.2021 11:38 10,2 C 10,6 C 9,5 C 87 % 1017,6 hPa 0,0 l/m 0 min 0 min 154 W/m 3,2 km/h (1 Bft) 97,87 %
17.02.2021 11:40 10,3 C 10,0 C 9,5 C 87 % 1017,6 hPa 0,0 l/m 0 min 0 min 154 W/m 12,9 km/h (3 Bft) 97,87 %
17.02.2021 11:42 10,3 C 10,0 C 8,9 C 87 % 1017,6 hPa 0,0 l/m 0 min 0 min 124 W/m 6,4 km/h (2 Bft) 95,74 %
17.02.2021 11:44 10,3 C 10,0 C 8,9 C 86 % 1017,7 hPa 0,0 l/m 0 min 0 min 116 W/m 6,4 km/h (2 Bft) 97,83 %
17.02.2021 11:46 10,3 C 10,0 C 8,9 C 86 % 1017,7 hPa 0,0 l/m 0 min 0 min 156 W/m 3,2 km/h (1 Bft) 97,87 %
17.02.2021 11:48 10,3 C 10,6 C 9,5 C 86 % 1017,7 hPa 0,0 l/m 0 min 0 min 167 W/m 0,0 km/h (0 Bft) 97,87 %
17.02.2021 11:50 10,3 C 10,0 C 9,5 C 86 % 1017,8 hPa 0,0 l/m 0 min 0 min 155 W/m 6,4 km/h (2 Bft) 97,87 %
17.02.2021 11:52 10,4 C 10,0 C 9,5 C 86 % 1017,7 hPa 0,0 l/m 0 min 0 min 158 W/m 0,0 km/h (0 Bft) 97,87 %
17.02.2021 11:54 10,4 C 10,0 C 9,5 C 86 % 1017,7 hPa 0,0 l/m 0 min 0 min 127 W/m 0,0 km/h (0 Bft) 97,87 %
17.02.2021 11:56 10,4 C 10,0 C 8,9 C 86 % 1017,7 hPa 0,0 l/m 0 min 0 min 132 W/m 3,2 km/h (1 Bft) 97,83 %
17.02.2021 11:58 10,4 C 10,0 C 8,9 C 86 % 1017,8 hPa 0,0 l/m 0 min 0 min 137 W/m 6,4 km/h (2 Bft) 93,62 %
17.02.2021 12:00 10,4 C 10,0 C 8,9 C 86 % 1017,8 hPa 0,0 l/m 0 min 0 min 112 W/m 0,0 km/h (0 Bft) 95,74 %
17.02.2021 12:02 10,4 C 10,0 C 8,9 C 86 % 1017,8 hPa 0,0 l/m 0 min 0 min 122 W/m 0,0 km/h (0 Bft) 95,65 %
17.02.2021 12:04 10,4 C 10,0 C 8,9 C 86 % 1017,7 hPa 0,0 l/m 0 min 0 min 144 W/m 0,0 km/h (0 Bft) 95,74 %
17.02.2021 12:08 10,4 C 10,6 C 9,5 C 85 % 1017,7 hPa 0,0 l/m 0 min 0 min 170 W/m 3,2 km/h (1 Bft) 94,79 %
17.02.2021 12:10 10,4 C 10,6 C 9,5 C 85 % 1017,7 hPa 0,0 l/m 0 min 0 min 178 W/m 3,2 km/h (1 Bft) 97,87 %
17.02.2021 12:12 10,4 C 10,6 C 9,5 C 85 % 1017,7 hPa 0,0 l/m 0 min 0 min 167 W/m 0,0 km/h (0 Bft) 95,74 %
17.02.2021 12:14 10,5 C 10,6 C 9,5 C 85 % 1017,7 hPa 0,0 l/m 0 min 0 min 155 W/m 41,8 km/h (6 Bft) 97,87 %
17.02.2021 12:16 10,5 C 10,6 C 9,5 C 84 % 1017,7 hPa 0,0 l/m 0 min 0 min 167 W/m 19,3 km/h (3 Bft) 95,74 %
17.02.2021 12:18 10,5 C 10,6 C 9,5 C 84 % 1017,7 hPa 0,0 l/m 0 min 0 min 176 W/m 3,2 km/h (1 Bft) 97,83 %
17.02.2021 12:20 10,5 C 10,6 C 9,5 C 84 % 1017,6 hPa 0,0 l/m 0 min 0 min 159 W/m 3,2 km/h (1 Bft) 93,62 %
17.02.2021 12:22 10,5 C 10,6 C 9,5 C 84 % 1017,7 hPa 0,0 l/m 0 min 0 min 170 W/m 0,0 km/h (0 Bft) 93,62 %
17.02.2021 12:24 10,5 C 10,6 C 9,5 C 84 % 1017,6 hPa 0,0 l/m 0 min 0 min 180 W/m 3,2 km/h (1 Bft) 93,62 %
17.02.2021 12:26 10,6 C 10,6 C 9,5 C 84 % 1017,6 hPa 0,0 l/m 0 min 0 min 184 W/m 0,0 km/h (0 Bft) 97,87 %
17.02.2021 12:28 10,6 C 10,6 C 9,5 C 84 % 1017,6 hPa 0,0 l/m 0 min 0 min 180 W/m 0,0 km/h (0 Bft) 97,83 %
17.02.2021 12:30 10,6 C 10,6 C 9,5 C 84 % 1017,6 hPa 0,0 l/m 0 min 0 min 191 W/m 0,0 km/h (0 Bft) 95,74 %
17.02.2021 12:32 10,6 C 10,6 C 9,5 C 84 % 1017,6 hPa 0,0 l/m 0 min 0 min 187 W/m 0,0 km/h (0 Bft) 100,00 %
17.02.2021 12:34 10,7 C 10,6 C 9,5 C 84 % 1017,6 hPa 0,0 l/m 0 min 0 min 185 W/m 0,0 km/h (0 Bft) 95,74 %
17.02.2021 12:36 10,7 C 10,6 C 9,5 C 84 % 1017,6 hPa 0,0 l/m 0 min 0 min 167 W/m 0,0 km/h (0 Bft) 93,22 %
17.02.2021 12:38 10,7 C 10,6 C 9,5 C 83 % 1017,6 hPa 0,0 l/m 0 min 0 min 157 W/m 3,2 km/h (1 Bft) 93,62 %
17.02.2021 12:40 10,8 C 10,6 C 9,5 C 83 % 1017,5 hPa 0,0 l/m 0 min 0 min 158 W/m 3,2 km/h (1 Bft) 94,29 %
17.02.2021 12:42 10,8 C 10,6 C 9,5 C 83 % 1017,6 hPa 0,0 l/m 0 min 0 min 177 W/m 25,7 km/h (4 Bft) 95,74 %
17.02.2021 12:44 10,8 C 10,6 C 9,5 C 83 % 1017,5 hPa 0,0 l/m 0 min 0 min 193 W/m 0,0 km/h (0 Bft) 93,62 %
17.02.2021 12:46 10,8 C 10,6 C 9,5 C 83 % 1017,5 hPa 0,0 l/m 0 min 0 min 200 W/m 3,2 km/h (1 Bft) 95,65 %
17.02.2021 12:48 10,8 C 11,1 C 10,0 C 83 % 1017,4 hPa 0,0 l/m 0 min 0 min 200 W/m 3,2 km/h (1 Bft) 97,87 %
17.02.2021 12:50 10,8 C 10,6 C 10,0 C 83 % 1017,5 hPa 0,0 l/m 0 min 0 min 209 W/m 0,0 km/h (0 Bft) 95,74 %
17.02.2021 12:52 10,8 C 10,6 C 9,5 C 83 % 1017,5 hPa 0,0 l/m 0 min 0 min 182 W/m 12,9 km/h (3 Bft) 97,87 %
17.02.2021 12:54 10,9 C 10,6 C 9,5 C 83 % 1017,4 hPa 0,0 l/m 0 min 0 min 177 W/m 3,2 km/h (1 Bft) 97,87 %
17.02.2021 12:56 10,9 C 11,1 C 10,0 C 83 % 1017,4 hPa 0,0 l/m 0 min 0 min 200 W/m 3,2 km/h (1 Bft) 97,83 %
17.02.2021 12:58 10,9 C 11,1 C 10,0 C 83 % 1017,4 hPa 0,0 l/m 0 min 0 min 209 W/m 0,0 km/h (0 Bft) 97,87 %
17.02.2021 13:00 10,9 C 11,1 C 10,0 C 83 % 1017,5 hPa 0,0 l/m 0 min 0 min 211 W/m 3,2 km/h (1 Bft) 97,87 %
17.02.2021 13:02 10,9 C 10,6 C 9,5 C 83 % 1017,5 hPa 0,0 l/m 0 min 0 min 159 W/m 0,0 km/h (0 Bft) 93,62 %
17.02.2021 13:04 10,9 C 11,1 C 10,0 C 83 % 1017,4 hPa 0,0 l/m 0 min 0 min 167 W/m 6,4 km/h (2 Bft) 100,00 %
17.02.2021 13:06 11,0 C 11,1 C 10,0 C 83 % 1017,5 hPa 0,0 l/m 0 min 0 min 181 W/m 0,0 km/h (0 Bft) 95,74 %
17.02.2021 13:08 11,0 C 11,1 C 10,0 C 83 % 1017,4 hPa 0,0 l/m 0 min 0 min 209 W/m 0,0 km/h (0 Bft) 98,28 %
17.02.2021 13:10 11,0 C 11,7 C 10,6 C 83 % 1017,4 hPa 0,0 l/m 0 min 0 min 214 W/m 0,0 km/h (0 Bft) 97,14 %
17.02.2021 13:12 11,0 C 11,1 C 10,0 C 83 % 1017,5 hPa 0,0 l/m 0 min 0 min 186 W/m 0,0 km/h (0 Bft) 97,87 %
17.02.2021 13:14 11,1 C 11,1 C 10,6 C 83 % 1017,4 hPa 0,0 l/m 0 min 0 min 208 W/m 0,0 km/h (0 Bft) 97,87 %
17.02.2021 13:16 11,1 C 11,1 C 10,0 C 83 % 1017,4 hPa 0,0 l/m 0 min 0 min 207 W/m 0,0 km/h (0 Bft) 97,87 %
17.02.2021 13:18 11,1 C 11,1 C 10,0 C 82 % 1017,4 hPa 0,0 l/m 0 min 0 min 166 W/m 16,1 km/h (3 Bft) 100,00 %
17.02.2021 13:20 11,2 C 11,7 C 10,6 C 83 % 1017,5 hPa 0,0 l/m 0 min 0 min 209 W/m 0,0 km/h (0 Bft) 98,25 %
17.02.2021 13:22 11,2 C 11,7 C 10,6 C 83 % 1017,5 hPa 0,0 l/m 2 min 0 min 248 W/m 0,0 km/h (0 Bft) 100,00 %
17.02.2021 13:24 11,2 C 11,7 C 10,6 C 83 % 1017,5 hPa 0,0 l/m 2 min 0 min 234 W/m 0,0 km/h (0 Bft) 100,00 %
17.02.2021 13:26 11,3 C 11,7 C 10,6 C 82 % 1017,5 hPa 0,0 l/m 0 min 0 min 217 W/m 0,0 km/h (0 Bft) 100,00 %
17.02.2021 13:28 11,3 C 11,7 C 10,6 C 82 % 1017,4 hPa 0,0 l/m 0 min 0 min 207 W/m 3,2 km/h (1 Bft) 100,00 %
17.02.2021 13:30 11,3 C 11,1 C 10,6 C 82 % 1017,5 hPa 0,0 l/m 0 min 0 min 215 W/m 0,0 km/h (0 Bft) 100,00 %
17.02.2021 13:32 11,3 C 11,7 C 10,6 C 82 % 1017,4 hPa 0,0 l/m 2 min 0 min 264 W/m 3,2 km/h (1 Bft) 100,00 %
17.02.2021 13:34 11,3 C 11,7 C 10,6 C 82 % 1017,4 hPa 0,0 l/m 2 min 0 min 223 W/m 19,3 km/h (3 Bft) 100,00 %
17.02.2021 13:36 11,4 C 12,2 C 10,6 C 82 % 1017,4 hPa 0,0 l/m 2 min 0 min 245 W/m 3,2 km/h (1 Bft) 100,00 %
17.02.2021 13:38 11,4 C 12,2 C 10,6 C 82 % 1017,4 hPa 0,0 l/m 2 min 0 min 241 W/m 3,2 km/h (1 Bft) 100,00 %
17.02.2021 13:40 11,4 C 11,7 C 10,6 C 82 % 1017,5 hPa 0,0 l/m 0 min 0 min 214 W/m 3,2 km/h (1 Bft) 100,00 %
17.02.2021 13:42 11,4 C 11,7 C 10,6 C 81 % 1017,6 hPa 0,0 l/m 0 min 0 min 183 W/m 22,5 km/h (4 Bft) 100,00 %
17.02.2021 13:44 11,4 C 11,1 C 10,0 C 81 % 1017,5 hPa 0,0 l/m 0 min 0 min 185 W/m 29,0 km/h (5 Bft) 100,00 %
17.02.2021 13:46 11,5 C 11,7 C 10,0 C 81 % 1017,6 hPa 0,0 l/m 0 min 0 min 199 W/m 0,0 km/h (0 Bft) 100,00 %
17.02.2021 13:48 11,5 C 11,1 C 10,0 C 81 % 1017,6 hPa 0,0 l/m 0 min 0 min 153 W/m 0,0 km/h (0 Bft) 100,00 %
17.02.2021 13:50 11,5 C 11,1 C 10,0 C 81 % 1017,6 hPa 0,0 l/m 0 min 0 min 135 W/m 3,2 km/h (1 Bft) 100,00 %
17.02.2021 13:52 11,5 C 11,1 C 9,5 C 81 % 1017,6 hPa 0,0 l/m 0 min 0 min 96 W/m 0,0 km/h (0 Bft) 95,65 %
17.02.2021 13:54 11,5 C 11,1 C 9,5 C 82 % 1017,6 hPa 0,0 l/m 0 min 0 min 119 W/m 3,2 km/h (1 Bft) 100,00 %
17.02.2021 13:56 11,5 C 11,1 C 9,5 C 82 % 1017,6 hPa 0,0 l/m 0 min 0 min 129 W/m 6,4 km/h (2 Bft) 91,49 %
17.02.2021 13:58 11,5 C 11,7 C 10,0 C 82 % 1017,6 hPa 0,0 l/m 0 min 0 min 169 W/m 0,0 km/h (0 Bft) 100,00 %
17.02.2021 14:00 11,5 C 11,7 C 10,0 C 81 % 1017,6 hPa 0,0 l/m 0 min 0 min 150 W/m 0,0 km/h (0 Bft) 100,00 %
17.02.2021 14:02 11,5 C 11,7 C 10,0 C 81 % 1017,5 hPa 0,0 l/m 0 min 0 min 137 W/m 0,0 km/h (0 Bft) 100,00 %
17.02.2021 14:04 11,5 C 11,7 C 10,0 C 81 % 1017,6 hPa 0,0 l/m 0 min 0 min 179 W/m 0,0 km/h (0 Bft) 100,00 %
17.02.2021 14:06 11,6 C 12,2 C 10,6 C 81 % 1017,6 hPa 0,0 l/m 2 min 0 min 236 W/m 0,0 km/h (0 Bft) 100,00 %
17.02.2021 14:08 11,6 C 12,2 C 11,1 C 81 % 1017,5 hPa 0,0 l/m 2 min 0 min 286 W/m 0,0 km/h (0 Bft) 100,00 %
17.02.2021 14:10 11,6 C 12,2 C 11,7 C 82 % 1017,5 hPa 0,0 l/m 2 min 0 min 276 W/m 16,1 km/h (3 Bft) 100,00 %
17.02.2021 14:12 11,7 C 12,2 C 11,1 C 81 % 1017,5 hPa 0,0 l/m 0 min 0 min 203 W/m 22,5 km/h (4 Bft) 100,00 %
17.02.2021 14:14 11,7 C 11,7 C 10,6 C 81 % 1017,5 hPa 0,0 l/m 0 min 0 min 160 W/m 3,2 km/h (1 Bft) 100,00 %
17.02.2021 14:16 11,7 C 11,7 C 10,0 C 81 % 1017,4 hPa 0,0 l/m 0 min 0 min 153 W/m 0,0 km/h (0 Bft) 100,00 %
17.02.2021 14:18 11,7 C 11,7 C 10,0 C 81 % 1017,5 hPa 0,0 l/m 0 min 0 min 153 W/m 3,2 km/h (1 Bft) 100,00 %
17.02.2021 14:20 11,7 C 11,7 C 10,6 C 81 % 1017,4 hPa 0,0 l/m 0 min 0 min 151 W/m 12,9 km/h (3 Bft) 100,00 %
17.02.2021 14:22 11,8 C 12,2 C 11,1 C 81 % 1017,4 hPa 0,0 l/m 0 min 0 min 160 W/m 0,0 km/h (0 Bft) 100,00 %
17.02.2021 14:24 11,8 C 12,2 C 11,1 C 81 % 1017,4 hPa 0,0 l/m 2 min 0 min 205 W/m 3,2 km/h (1 Bft) 100,00 %
17.02.2021 14:26 11,8 C 12,2 C 11,7 C 81 % 1017,5 hPa 0,0 l/m 2 min 0 min 264 W/m 29,0 km/h (5 Bft) 100,00 %
17.02.2021 14:28 11,8 C 12,2 C 11,7 C 80 % 1017,4 hPa 0,0 l/m 2 min 0 min 257 W/m 3,2 km/h (1 Bft) 100,00 %
17.02.2021 14:30 11,9 C 11,7 C 11,1 C 80 % 1017,4 hPa 0,0 l/m 0 min 0 min 178 W/m 12,9 km/h (3 Bft) 100,00 %
17.02.2021 14:32 11,9 C 11,7 C 10,6 C 80 % 1017,5 hPa 0,0 l/m 0 min 0 min 102 W/m 0,0 km/h (0 Bft) 100,00 %
17.02.2021 14:34 11,8 C 11,1 C 10,0 C 80 % 1017,4 hPa 0,0 l/m 0 min 0 min 93 W/m 9,7 km/h (2 Bft) 100,00 %
17.02.2021 14:36 11,8 C 11,7 C 10,0 C 80 % 1017,4 hPa 0,0 l/m 0 min 0 min 85 W/m 0,0 km/h (0 Bft) 100,00 %
17.02.2021 14:38 11,8 C 11,7 C 10,0 C 80 % 1017,4 hPa 0,0 l/m 0 min 0 min 116 W/m 0,0 km/h (0 Bft) 95,65 %
17.02.2021 14:40 11,8 C 11,7 C 10,0 C 80 % 1017,4 hPa 0,0 l/m 0 min 0 min 130 W/m 29,0 km/h (5 Bft) 100,00 %
17.02.2021 14:42 11,8 C 11,7 C 9,5 C 80 % 1017,3 hPa 0,0 l/m 0 min 0 min 108 W/m 9,7 km/h (2 Bft) 100,00 %
17.02.2021 14:44 11,8 C 11,1 C 9,5 C 80 % 1017,3 hPa 0,0 l/m 0 min 0 min 110 W/m 3,2 km/h (1 Bft) 97,87 %
17.02.2021 14:46 11,8 C 11,1 C 10,0 C 80 % 1017,3 hPa 0,0 l/m 0 min 0 min 121 W/m 0,0 km/h (0 Bft) 97,87 %
17.02.2021 14:48 11,8 C 11,7 C 10,0 C 81 % 1017,3 hPa 0,0 l/m 0 min 0 min 133 W/m 3,2 km/h (1 Bft) 97,87 %
17.02.2021 14:50 11,7 C 11,7 C 10,0 C 81 % 1017,3 hPa 0,0 l/m 0 min 0 min 130 W/m 12,9 km/h (3 Bft) 95,65 %
17.02.2021 14:52 11,7 C 11,7 C 10,0 C 80 % 1017,3 hPa 0,0 l/m 0 min 0 min 124 W/m 12,9 km/h (3 Bft) 95,74 %
17.02.2021 14:54 11,7 C 11,7 C 10,0 C 81 % 1017,3 hPa 0,0 l/m 0 min 0 min 158 W/m 0,0 km/h (0 Bft) 97,87 %
17.02.2021 14:56 11,7 C 11,7 C 10,0 C 81 % 1017,3 hPa 0,0 l/m 0 min 0 min 163 W/m 3,2 km/h (1 Bft) 95,74 %
17.02.2021 14:58 11,7 C 11,7 C 10,0 C 81 % 1017,4 hPa 0,0 l/m 0 min 0 min 165 W/m 0,0 km/h (0 Bft) 93,62 %
17.02.2021 15:00 11,7 C 11,7 C 10,0 C 80 % 1017,3 hPa 0,0 l/m 0 min 0 min 153 W/m 0,0 km/h (0 Bft) 95,74 %
17.02.2021 15:02 11,7 C 11,7 C 10,0 C 80 % 1017,3 hPa 0,0 l/m 0 min 0 min 158 W/m 0,0 km/h (0 Bft) 95,65 %
17.02.2021 15:04 11,7 C 11,7 C 10,0 C 81 % 1017,3 hPa 0,0 l/m 0 min 0 min 158 W/m 0,0 km/h (0 Bft) 95,74 %
17.02.2021 15:06 11,7 C 11,7 C 10,0 C 81 % 1017,3 hPa 0,0 l/m 0 min 0 min 144 W/m 0,0 km/h (0 Bft) 95,74 %
17.02.2021 15:08 11,7 C 11,7 C 10,0 C 81 % 1017,3 hPa 0,0 l/m 0 min 0 min 129 W/m 0,0 km/h (0 Bft) 93,62 %
17.02.2021 15:10 11,7 C 11,1 C 9,5 C 81 % 1017,3 hPa 0,0 l/m 0 min 0 min 105 W/m 0,0 km/h (0 Bft) 93,62 %
17.02.2021 15:12 11,7 C 11,1 C 9,5 C 81 % 1017,3 hPa 0,0 l/m 0 min 0 min 91 W/m 12,9 km/h (3 Bft) 93,62 %
17.02.2021 15:14 11,7 C 11,1 C 9,5 C 81 % 1017,3 hPa 0,0 l/m 0 min 0 min 91 W/m 0,0 km/h (0 Bft) 93,48 %
17.02.2021 15:16 11,7 C 11,1 C 9,5 C 81 % 1017,3 hPa 0,0 l/m 0 min 0 min 98 W/m 6,4 km/h (2 Bft) 91,49 %
17.02.2021 15:18 11,7 C 11,7 C 10,0 C 81 % 1017,4 hPa 0,0 l/m 0 min 0 min 121 W/m 3,2 km/h (1 Bft) 93,62 %
17.02.2021 15:20 11,7 C 11,7 C 10,0 C 80 % 1017,3 hPa 0,0 l/m 0 min 0 min 120 W/m 12,9 km/h (3 Bft) 91,49 %
17.02.2021 15:22 11,7 C 11,7 C 9,5 C 80 % 1017,3 hPa 0,0 l/m 0 min 0 min 97 W/m 0,0 km/h (0 Bft) 93,62 %
17.02.2021 15:24 11,7 C 11,1 C 9,5 C 80 % 1017,4 hPa 0,0 l/m 0 min 0 min 79 W/m 3,2 km/h (1 Bft) 93,62 %
17.02.2021 15:26 11,7 C 11,1 C 9,5 C 80 % 1017,3 hPa 0,0 l/m 0 min 0 min 89 W/m 12,9 km/h (3 Bft) 95,65 %
17.02.2021 15:28 11,7 C 11,7 C 9,5 C 80 % 1017,3 hPa 0,0 l/m 0 min 0 min 91 W/m 0,0 km/h (0 Bft) 91,49 %
17.02.2021 15:30 11,7 C 11,7 C 9,5 C 80 % 1017,3 hPa 0,0 l/m 0 min 0 min 94 W/m 0,0 km/h (0 Bft) 93,62 %
17.02.2021 15:32 11,8 C 11,1 C 9,5 C 80 % 1017,3 hPa 0,0 l/m 0 min 0 min 111 W/m 3,2 km/h (1 Bft) 91,43 %
17.02.2021 15:34 11,8 C 11,7 C 9,5 C 80 % 1017,3 hPa 0,0 l/m 0 min 0 min 117 W/m 0,0 km/h (0 Bft) 93,62 %
17.02.2021 15:36 11,7 C 11,7 C 9,5 C 80 % 1017,3 hPa 0,0 l/m 0 min 0 min 120 W/m 3,2 km/h (1 Bft) 93,22 %
17.02.2021 15:38 11,8 C 11,7 C 9,5 C 80 % 1017,3 hPa 0,0 l/m 0 min 0 min 115 W/m 19,3 km/h (3 Bft) 91,30 %
17.02.2021 15:40 11,8 C 11,7 C 9,5 C 80 % 1017,3 hPa 0,0 l/m 0 min 0 min 117 W/m 3,2 km/h (1 Bft) 97,22 %
17.02.2021 15:42 11,8 C 11,7 C 9,5 C 80 % 1017,3 hPa 0,0 l/m 0 min 0 min 107 W/m 0,0 km/h (0 Bft) 93,48 %
17.02.2021 15:44 11,8 C 11,7 C 9,5 C 80 % 1017,3 hPa 0,0 l/m 0 min 0 min 98 W/m 0,0 km/h (0 Bft) 91,49 %
17.02.2021 15:46 11,8 C 11,1 C 9,5 C 80 % 1017,3 hPa 0,0 l/m 0 min 0 min 92 W/m 6,4 km/h (2 Bft) 91,49 %
17.02.2021 15:48 11,8 C 11,7 C 9,5 C 80 % 1017,3 hPa 0,0 l/m 0 min 0 min 85 W/m 0,0 km/h (0 Bft) 95,74 %
17.02.2021 15:50 11,8 C 11,1 C 9,5 C 80 % 1017,3 hPa 0,0 l/m 0 min 0 min 88 W/m 0,0 km/h (0 Bft) 97,87 %
17.02.2021 15:52 11,8 C 11,7 C 9,5 C 80 % 1017,2 hPa 0,0 l/m 0 min 0 min 91 W/m 0,0 km/h (0 Bft) 97,87 %
17.02.2021 15:54 11,8 C 11,7 C 9,5 C 80 % 1017,2 hPa 0,0 l/m 0 min 0 min 99 W/m 0,0 km/h (0 Bft) 100,00 %
17.02.2021 15:56 11,8 C 11,7 C 9,5 C 80 % 1017,3 hPa 0,0 l/m 0 min 0 min 87 W/m 0,0 km/h (0 Bft) 97,87 %
17.02.2021 15:58 11,8 C 11,1 C 9,5 C 80 % 1017,3 hPa 0,0 l/m 0 min 0 min 84 W/m 0,0 km/h (0 Bft) 100,00 %
17.02.2021 16:00 11,8 C 11,1 C 9,5 C 80 % 1017,2 hPa 0,0 l/m 0 min 0 min 79 W/m 3,2 km/h (1 Bft) 100,00 %
17.02.2021 16:02 11,7 C 11,1 C 9,5 C 80 % 1017,2 hPa 0,0 l/m 0 min 0 min 75 W/m 0,0 km/h (0 Bft) 100,00 %
17.02.2021 16:04 11,7 C 11,1 C 9,5 C 80 % 1017,3 hPa 0,0 l/m 0 min 0 min 74 W/m 0,0 km/h (0 Bft) 100,00 %
17.02.2021 16:06 11,7 C 11,1 C 9,5 C 80 % 1017,3 hPa 0,0 l/m 0 min 0 min 75 W/m 0,0 km/h (0 Bft) 97,83 %
17.02.2021 16:08 11,7 C 11,1 C 9,5 C 80 % 1017,3 hPa 0,0 l/m 0 min 0 min 75 W/m 9,7 km/h (2 Bft) 100,00 %
17.02.2021 16:10 11,7 C 11,1 C 9,5 C 80 % 1017,3 hPa 0,0 l/m 0 min 0 min 80 W/m 0,0 km/h (0 Bft) 100,00 %
17.02.2021 16:12 11,7 C 11,1 C 9,5 C 80 % 1017,3 hPa 0,0 l/m 0 min 0 min 81 W/m 12,9 km/h (3 Bft) 100,00 %
17.02.2021 16:14 11,6 C 11,1 C 9,5 C 80 % 1017,3 hPa 0,0 l/m 0 min 0 min 85 W/m 6,4 km/h (2 Bft) 100,00 %
17.02.2021 16:16 11,6 C 11,1 C 9,5 C 80 % 1017,4 hPa 0,0 l/m 0 min 0 min 84 W/m 0,0 km/h (0 Bft) 100,00 %
17.02.2021 16:18 11,6 C 11,1 C 9,5 C 80 % 1017,3 hPa 0,0 l/m 0 min 0 min 80 W/m 0,0 km/h (0 Bft) 100,00 %
17.02.2021 16:20 11,7 C 11,1 C 9,5 C 80 % 1017,3 hPa 0,0 l/m 0 min 0 min 74 W/m 0,0 km/h (0 Bft) 97,87 %
17.02.2021 16:22 11,7 C 11,7 C 9,5 C 81 % 1017,3 hPa 0,0 l/m 0 min 0 min 87 W/m 0,0 km/h (0 Bft) 100,00 %
17.02.2021 16:24 11,7 C 11,7 C 9,5 C 80 % 1017,2 hPa 0,0 l/m 2 min 0 min 106 W/m 3,2 km/h (1 Bft) 100,00 %
17.02.2021 16:26 11,7 C 12,2 C 10,6 C 80 % 1017,2 hPa 0,0 l/m 2 min 0 min 147 W/m 0,0 km/h (0 Bft) 100,00 %
17.02.2021 16:28 11,7 C 11,7 C 10,6 C 80 % 1017,2 hPa 0,0 l/m 2 min 0 min 142 W/m 0,0 km/h (0 Bft) 100,00 %
17.02.2021 16:30 11,8 C 11,7 C 10,0 C 80 % 1017,2 hPa 0,0 l/m 2 min 0 min 113 W/m 3,2 km/h (1 Bft) 100,00 %
17.02.2021 16:32 11,8 C 11,7 C 10,0 C 80 % 1017,2 hPa 0,0 l/m 2 min 0 min 108 W/m 0,0 km/h (0 Bft) 100,00 %
17.02.2021 16:34 11,8 C 11,7 C 9,5 C 80 % 1017,2 hPa 0,0 l/m 0 min 0 min 89 W/m 6,4 km/h (2 Bft) 100,00 %
17.02.2021 16:36 11,8 C 11,7 C 9,5 C 80 % 1017,2 hPa 0,0 l/m 0 min 0 min 72 W/m 0,0 km/h (0 Bft) 100,00 %
17.02.2021 16:38 11,8 C 11,1 C 9,5 C 80 % 1017,2 hPa 0,0 l/m 0 min 0 min 63 W/m 6,4 km/h (2 Bft) 100,00 %
17.02.2021 16:40 11,8 C 11,1 C 9,5 C 80 % 1017,2 hPa 0,0 l/m 0 min 0 min 55 W/m 6,4 km/h (2 Bft) 100,00 %
17.02.2021 16:42 11,8 C 11,1 C 9,5 C 79 % 1017,2 hPa 0,0 l/m 0 min 0 min 48 W/m 0,0 km/h (0 Bft) 97,83 %
17.02.2021 16:44 11,8 C 11,1 C 9,5 C 79 % 1017,2 hPa 0,0 l/m 0 min 0 min 44 W/m 0,0 km/h (0 Bft) 100,00 %
17.02.2021 16:46 11,8 C 11,1 C 8,9 C 79 % 1017,3 hPa 0,0 l/m 0 min 0 min 45 W/m 3,2 km/h (1 Bft) 100,00 %
17.02.2021 16:48 11,8 C 11,1 C 8,9 C 79 % 1017,2 hPa 0,0 l/m 0 min 0 min 46 W/m 0,0 km/h (0 Bft) 100,00 %
17.02.2021 16:50 11,8 C 11,1 C 8,9 C 79 % 1017,2 hPa 0,0 l/m 0 min 0 min 43 W/m 3,2 km/h (1 Bft) 100,00 %
17.02.2021 16:52 11,7 C 11,1 C 8,9 C 79 % 1017,2 hPa 0,0 l/m 0 min 0 min 43 W/m 0,0 km/h (0 Bft) 100,00 %
17.02.2021 16:54 11,7 C 11,1 C 8,9 C 79 % 1017,2 hPa 0,0 l/m 0 min 0 min 41 W/m 3,2 km/h (1 Bft) 100,00 %
17.02.2021 16:56 11,7 C 11,1 C 8,9 C 79 % 1017,2 hPa 0,0 l/m 0 min 0 min 40 W/m 0,0 km/h (0 Bft) 100,00 %
17.02.2021 16:58 11,7 C 11,1 C 8,9 C 79 % 1017,2 hPa 0,0 l/m 0 min 0 min 39 W/m 3,2 km/h (1 Bft) 100,00 %
17.02.2021 17:00 11,7 C 11,1 C 8,9 C 79 % 1017,2 hPa 0,0 l/m 0 min 0 min 36 W/m 3,2 km/h (1 Bft) 97,87 %
17.02.2021 17:02 11,6 C 11,1 C 8,9 C 79 % 1017,3 hPa 0,0 l/m 0 min 0 min 33 W/m 6,4 km/h (2 Bft) 100,00 %
17.02.2021 17:04 11,6 C 11,1 C 8,9 C 79 % 1017,2 hPa 0,0 l/m 0 min 0 min 33 W/m 0,0 km/h (0 Bft) 100,00 %
17.02.2021 17:06 11,6 C 11,1 C 8,9 C 79 % 1017,2 hPa 0,0 l/m 0 min 0 min 35 W/m 0,0 km/h (0 Bft) 100,00 %
17.02.2021 17:08 11,6 C 11,1 C 8,9 C 79 % 1017,3 hPa 0,0 l/m 0 min 0 min 39 W/m 0,0 km/h (0 Bft) 100,00 %
17.02.2021 17:10 11,6 C 11,1 C 8,9 C 79 % 1017,2 hPa 0,0 l/m 0 min 0 min 38 W/m 0,0 km/h (0 Bft) 100,00 %
17.02.2021 17:12 11,6 C 11,1 C 8,9 C 79 % 1017,2 hPa 0,0 l/m 0 min 0 min 33 W/m 3,2 km/h (1 Bft) 100,00 %
17.02.2021 17:14 11,6 C 11,1 C 8,9 C 79 % 1017,2 hPa 0,0 l/m 0 min 0 min 28 W/m 0,0 km/h (0 Bft) 100,00 %
17.02.2021 17:16 11,6 C 11,1 C 8,9 C 79 % 1017,3 hPa 0,0 l/m 0 min 0 min 29 W/m 3,2 km/h (1 Bft) 100,00 %
17.02.2021 17:18 11,5 C 11,1 C 8,9 C 79 % 1017,2 hPa 0,0 l/m 0 min 0 min 30 W/m 0,0 km/h (0 Bft) 100,00 %
17.02.2021 17:20 11,5 C 11,1 C 8,9 C 79 % 1017,3 hPa 0,0 l/m 0 min 0 min 32 W/m 0,0 km/h (0 Bft) 100,00 %
17.02.2021 17:22 11,5 C 11,1 C 8,9 C 79 % 1017,3 hPa 0,0 l/m 0 min 0 min 33 W/m 0,0 km/h (0 Bft) 100,00 %
17.02.2021 17:24 11,5 C 11,1 C 8,9 C 79 % 1017,3 hPa 0,0 l/m 2 min 0 min 31 W/m 0,0 km/h (0 Bft) 100,00 %
17.02.2021 17:26 11,5 C 11,1 C 8,9 C 79 % 1017,3 hPa 0,0 l/m 2 min 0 min 31 W/m 0,0 km/h (0 Bft) 100,00 %
17.02.2021 17:28 11,5 C 11,1 C 8,9 C 80 % 1017,3 hPa 0,0 l/m 2 min 0 min 26 W/m 0,0 km/h (0 Bft) 100,00 %
17.02.2021 17:30 11,5 C 10,6 C 8,9 C 79 % 1017,4 hPa 0,0 l/m 0 min 0 min 20 W/m 0,0 km/h (0 Bft) 100,00 %
17.02.2021 17:32 11,5 C 10,6 C 8,9 C 80 % 1017,4 hPa 0,0 l/m 0 min 0 min 20 W/m 0,0 km/h (0 Bft) 97,87 %
17.02.2021 17:34 11,5 C 10,6 C 8,9 C 80 % 1017,4 hPa 0,0 l/m 2 min 0 min 21 W/m 0,0 km/h (0 Bft) 93,62 %
17.02.2021 17:36 11,5 C 10,6 C 8,9 C 80 % 1017,4 hPa 0,0 l/m 2 min 0 min 21 W/m 0,0 km/h (0 Bft) 97,87 %
17.02.2021 17:38 11,5 C 10,6 C 8,4 C 80 % 1017,4 hPa 0,0 l/m 0 min 0 min 19 W/m 0,0 km/h (0 Bft) 100,00 %
17.02.2021 17:40 11,4 C 10,6 C 8,4 C 80 % 1017,4 hPa 0,0 l/m 0 min 0 min 14 W/m 0,0 km/h (0 Bft) 100,00 %
17.02.2021 17:42 11,4 C 10,6 C 8,4 C 80 % 1017,4 hPa 0,0 l/m 0 min 0 min 11 W/m 0,0 km/h (0 Bft) 97,87 %
17.02.2021 17:44 11,4 C 10,6 C 8,4 C 80 % 1017,4 hPa 0,0 l/m 0 min 0 min 8 W/m 0,0 km/h (0 Bft) 100,00 %
17.02.2021 17:46 11,4 C 10,6 C 8,4 C 80 % 1017,5 hPa 0,0 l/m 0 min 0 min 5 W/m 0,0 km/h (0 Bft) 97,87 %
17.02.2021 17:48 11,4 C 10,6 C 8,4 C 80 % 1017,5 hPa 0,0 l/m 0 min 0 min 1 W/m 0,0 km/h (0 Bft) 97,87 %
17.02.2021 17:50 11,4 C 10,6 C 8,4 C 80 % 1017,4 hPa 0,0 l/m 0 min 0 min 0 W/m 0,0 km/h (0 Bft) 97,87 %
17.02.2021 17:52 11,4 C 10,6 C 8,4 C 80 % 1017,5 hPa 0,0 l/m 0 min 0 min 0 W/m 0,0 km/h (0 Bft) 95,65 %
17.02.2021 17:54 11,3 C 10,6 C 8,4 C 80 % 1017,5 hPa 0,0 l/m 0 min 0 min 0 W/m 0,0 km/h (0 Bft) 95,74 %
17.02.2021 17:56 11,3 C 10,6 C 8,4 C 80 % 1017,5 hPa 0,0 l/m 0 min 0 min 0 W/m 0,0 km/h (0 Bft) 95,74 %
17.02.2021 17:58 11,3 C 10,6 C 8,4 C 80 % 1017,5 hPa 0,0 l/m 0 min 0 min 0 W/m 0,0 km/h (0 Bft) 95,74 %
17.02.2021 18:00 11,3 C 10,6 C 8,4 C 81 % 1017,5 hPa 0,0 l/m 0 min 0 min 0 W/m 0,0 km/h (0 Bft) 95,74 %
17.02.2021 18:02 11,3 C 10,6 C 8,4 C 80 % 1017,6 hPa 0,0 l/m 0 min 0 min 0 W/m 0,0 km/h (0 Bft) 94,34 %
17.02.2021 18:04 11,2 C 10,6 C 8,4 C 80 % 1017,5 hPa 0,0 l/m 0 min 0 min 0 W/m 0,0 km/h (0 Bft) 95,65 %
17.02.2021 18:08 11,2 C 10,6 C 8,4 C 80 % 1017,7 hPa 0,0 l/m 0 min 0 min 0 W/m 3,2 km/h (1 Bft) 94,74 %
17.02.2021 18:10 11,1 C 10,6 C 8,4 C 80 % 1017,7 hPa 0,0 l/m 0 min 0 min 0 W/m 0,0 km/h (0 Bft) 95,74 %
17.02.2021 18:12 11,1 C 10,6 C 8,4 C 81 % 1017,6 hPa 0,0 l/m 0 min 0 min 0 W/m 0,0 km/h (0 Bft) 95,74 %
17.02.2021 18:14 11,1 C 10,6 C 8,4 C 81 % 1017,6 hPa 0,0 l/m 0 min 0 min 0 W/m 0,0 km/h (0 Bft) 95,65 %
17.02.2021 18:16 11,1 C 10,6 C 8,4 C 81 % 1017,6 hPa 0,0 l/m 0 min 0 min 0 W/m 0,0 km/h (0 Bft) 93,62 %
17.02.2021 18:18 11,1 C 10,6 C 8,4 C 81 % 1017,6 hPa 0,0 l/m 0 min 0 min 0 W/m 0,0 km/h (0 Bft) 93,62 %
17.02.2021 18:20 11,1 C 10,6 C 8,4 C 81 % 1017,6 hPa 0,0 l/m 0 min 0 min 0 W/m 6,4 km/h (2 Bft) 95,74 %
17.02.2021 18:22 11,0 C 10,0 C 8,4 C 81 % 1017,6 hPa 0,0 l/m 0 min 0 min 0 W/m 0,0 km/h (0 Bft) 93,62 %
17.02.2021 18:24 11,0 C 10,0 C 8,4 C 81 % 1017,7 hPa 0,0 l/m 0 min 0 min 0 W/m 0,0 km/h (0 Bft) 95,00 %
17.02.2021 18:26 11,0 C 10,0 C 8,4 C 81 % 1017,6 hPa 0,0 l/m 0 min 0 min 0 W/m 0,0 km/h (0 Bft) 93,62 %
17.02.2021 18:28 11,0 C 10,0 C 8,4 C 81 % 1017,7 hPa 0,0 l/m 0 min 0 min 0 W/m 0,0 km/h (0 Bft) 95,65 %
17.02.2021 18:30 11,0 C 10,0 C 7,8 C 81 % 1017,7 hPa 0,0 l/m 0 min 0 min 0 W/m 0,0 km/h (0 Bft) 97,87 %
17.02.2021 18:32 11,0 C 10,0 C 7,8 C 81 % 1017,7 hPa 0,0 l/m 0 min 0 min 0 W/m 3,2 km/h (1 Bft) 95,74 %
17.02.2021 18:34 11,0 C 10,0 C 7,8 C 81 % 1017,7 hPa 0,0 l/m 0 min 0 min 0 W/m 0,0 km/h (0 Bft) 97,87 %
17.02.2021 18:36 11,0 C 10,0 C 7,8 C 81 % 1017,7 hPa 0,0 l/m 0 min 0 min 0 W/m 0,0 km/h (0 Bft) 95,74 %
17.02.2021 18:38 10,9 C 10,0 C 7,8 C 81 % 1017,7 hPa 0,0 l/m 0 min 0 min 0 W/m 0,0 km/h (0 Bft) 95,65 %
17.02.2021 18:40 10,9 C 10,0 C 7,8 C 81 % 1017,8 hPa 0,0 l/m 0 min 0 min 0 W/m 0,0 km/h (0 Bft) 97,87 %
17.02.2021 18:42 10,9 C 10,0 C 7,8 C 81 % 1017,8 hPa 0,0 l/m 0 min 0 min 0 W/m 0,0 km/h (0 Bft) 97,87 %
17.02.2021 18:44 10,9 C 10,0 C 7,8 C 81 % 1017,7 hPa 0,0 l/m 0 min 0 min 0 W/m 0,0 km/h (0 Bft) 97,87 %
17.02.2021 18:46 10,8 C 10,0 C 7,8 C 81 % 1017,7 hPa 0,0 l/m 0 min 0 min 0 W/m 0,0 km/h (0 Bft) 97,87 %
17.02.2021 18:48 10,8 C 10,0 C 7,8 C 81 % 1017,7 hPa 0,0 l/m 0 min 0 min 0 W/m 0,0 km/h (0 Bft) 97,87 %
17.02.2021 18:50 10,8 C 10,0 C 7,8 C 81 % 1017,7 hPa 0,0 l/m 0 min 0 min 0 W/m 0,0 km/h (0 Bft) 97,83 %
17.02.2021 18:52 10,8 C 10,0 C 7,8 C 81 % 1017,7 hPa 0,0 l/m 0 min 0 min 0 W/m 0,0 km/h (0 Bft) 97,87 %
17.02.2021 18:54 10,8 C 10,0 C 7,8 C 81 % 1017,7 hPa 0,0 l/m 0 min 0 min 0 W/m 3,2 km/h (1 Bft) 97,87 %
17.02.2021 18:56 10,8 C 10,0 C 7,8 C 81 % 1017,7 hPa 0,0 l/m 0 min 0 min 0 W/m 0,0 km/h (0 Bft) 95,74 %
17.02.2021 18:58 10,7 C 10,0 C 7,8 C 81 % 1017,7 hPa 0,0 l/m 0 min 0 min 0 W/m 0,0 km/h (0 Bft) 97,87 %
17.02.2021 19:00 10,7 C 10,0 C 7,8 C 81 % 1017,7 hPa 0,0 l/m 0 min 0 min 0 W/m 0,0 km/h (0 Bft) 97,87 %
17.02.2021 19:02 10,7 C 10,0 C 7,8 C 81 % 1017,7 hPa 0,0 l/m 0 min 0 min 0 W/m 3,2 km/h (1 Bft) 95,74 %
17.02.2021 19:04 10,7 C 10,0 C 7,8 C 81 % 1017,7 hPa 0,0 l/m 0 min 0 min 0 W/m 0,0 km/h (0 Bft) 97,83 %
17.02.2021 19:06 10,6 C 10,0 C 7,8 C 81 % 1017,7 hPa 0,0 l/m 0 min 0 min 0 W/m 0,0 km/h (0 Bft) 97,87 %
17.02.2021 19:08 10,6 C 10,0 C 7,8 C 81 % 1017,8 hPa 0,0 l/m 0 min 0 min 0 W/m 0,0 km/h (0 Bft) 97,87 %
17.02.2021 19:10 10,6 C 10,0 C 7,8 C 81 % 1017,7 hPa 0,0 l/m 0 min 0 min 0 W/m 0,0 km/h (0 Bft) 97,87 %
17.02.2021 19:12 10,6 C 10,0 C 7,8 C 82 % 1017,7 hPa 0,0 l/m 0 min 0 min 0 W/m 0,0 km/h (0 Bft) 97,87 %
17.02.2021 19:14 10,6 C 10,0 C 7,8 C 82 % 1017,8 hPa 0,0 l/m 0 min 0 min 0 W/m 0,0 km/h (0 Bft) 95,65 %
17.02.2021 19:16 10,6 C 10,0 C 7,8 C 82 % 1017,8 hPa 0,0 l/m 0 min 0 min 0 W/m 3,2 km/h (1 Bft) 98,28 %
17.02.2021 19:18 10,6 C 10,0 C 7,8 C 82 % 1017,7 hPa 0,0 l/m 0 min 0 min 0 W/m 3,2 km/h (1 Bft) 97,87 %
17.02.2021 19:20 10,5 C 10,0 C 7,8 C 82 % 1017,7 hPa 0,0 l/m 0 min 0 min 0 W/m 3,2 km/h (1 Bft) 97,87 %
17.02.2021 19:22 10,5 C 10,0 C 7,8 C 82 % 1017,8 hPa 0,0 l/m 0 min 0 min 0 W/m 0,0 km/h (0 Bft) 97,87 %
17.02.2021 19:24 10,5 C 9,4 C 7,8 C 82 % 1017,7 hPa 0,0 l/m 0 min 0 min 0 W/m 6,4 km/h (2 Bft) 97,83 %
17.02.2021 19:26 10,5 C 9,4 C 7,8 C 82 % 1017,7 hPa 0,0 l/m 0 min 0 min 0 W/m 0,0 km/h (0 Bft) 97,87 %
17.02.2021 19:28 10,5 C 9,4 C 7,3 C 82 % 1017,7 hPa 0,0 l/m 0 min 0 min 0 W/m 0,0 km/h (0 Bft) 97,87 %
17.02.2021 19:30 10,5 C 9,4 C 7,3 C 82 % 1017,7 hPa 0,0 l/m 0 min 0 min 0 W/m 3,2 km/h (1 Bft) 97,87 %
17.02.2021 19:32 10,4 C 9,4 C 7,3 C 82 % 1017,7 hPa 0,0 l/m 0 min 0 min 0 W/m 0,0 km/h (0 Bft) 97,87 %
17.02.2021 19:34 10,4 C 9,4 C 7,3 C 82 % 1017,7 hPa 0,0 l/m 0 min 0 min 0 W/m 0,0 km/h (0 Bft) 97,87 %
17.02.2021 19:36 10,4 C 9,4 C 7,3 C 82 % 1017,7 hPa 0,0 l/m 0 min 0 min 0 W/m 3,2 km/h (1 Bft) 97,83 %
17.02.2021 19:38 10,4 C 9,4 C 7,3 C 82 % 1017,8 hPa 0,0 l/m 0 min 0 min 0 W/m 0,0 km/h (0 Bft) 97,87 %
17.02.2021 19:40 10,3 C 9,4 C 7,3 C 82 % 1017,8 hPa 0,0 l/m 0 min 0 min 0 W/m 0,0 km/h (0 Bft) 95,74 %
17.02.2021 19:42 10,3 C 9,4 C 7,3 C 82 % 1017,8 hPa 0,0 l/m 0 min 0 min 0 W/m 0,0 km/h (0 Bft) 97,87 %
17.02.2021 19:44 10,3 C 9,4 C 7,3 C 82 % 1017,8 hPa 0,0 l/m 0 min 0 min 0 W/m 0,0 km/h (0 Bft) 97,87 %
17.02.2021 19:46 10,3 C 9,4 C 7,3 C 82 % 1017,8 hPa 0,0 l/m 0 min 0 min 0 W/m 0,0 km/h (0 Bft) 97,87 %
17.02.2021 19:48 10,3 C 9,4 C 7,3 C 82 % 1017,8 hPa 0,0 l/m 0 min 0 min 0 W/m 0,0 km/h (0 Bft) 97,83 %
17.02.2021 19:50 10,3 C 9,4 C 7,3 C 82 % 1017,8 hPa 0,0 l/m 0 min 0 min 0 W/m 3,2 km/h (1 Bft) 97,87 %
17.02.2021 19:52 10,3 C 9,4 C 7,3 C 82 % 1017,7 hPa 0,0 l/m 0 min 0 min 0 W/m 0,0 km/h (0 Bft) 97,87 %
17.02.2021 19:54 10,2 C 9,4 C 7,3 C 82 % 1017,7 hPa 0,0 l/m 0 min 0 min 0 W/m 0,0 km/h (0 Bft) 100,00 %
17.02.2021 19:56 10,2 C 9,4 C 7,3 C 82 % 1017,8 hPa 0,0 l/m 0 min 0 min 0 W/m 0,0 km/h (0 Bft) 97,87 %
17.02.2021 19:58 10,2 C 9,4 C 7,3 C 82 % 1017,7 hPa 0,0 l/m 0 min 0 min 0 W/m 0,0 km/h (0 Bft) 97,87 %
17.02.2021 20:00 10,2 C 9,4 C 7,3 C 82 % 1017,7 hPa 0,0 l/m 0 min 0 min 0 W/m 0,0 km/h (0 Bft) 100,00 %
17.02.2021 20:02 10,1 C 9,4 C 7,3 C 82 % 1017,7 hPa 0,0 l/m 0 min 0 min 0 W/m 0,0 km/h (0 Bft) 100,00 %
17.02.2021 20:04 10,1 C 9,4 C 7,3 C 82 % 1017,6 hPa 0,0 l/m 0 min 0 min 0 W/m 0,0 km/h (0 Bft) 100,00 %
17.02.2021 20:06 10,1 C 9,4 C 7,3 C 82 % 1017,6 hPa 0,0 l/m 0 min 0 min 0 W/m 0,0 km/h (0 Bft) 100,00 %
17.02.2021 20:08 10,1 C 9,4 C 7,3 C 82 % 1017,6 hPa 0,0 l/m 0 min 0 min 0 W/m 0,0 km/h (0 Bft) 97,87 %
17.02.2021 20:10 10,1 C 9,4 C 7,3 C 82 % 1017,6 hPa 0,0 l/m 0 min 0 min 0 W/m 3,2 km/h (1 Bft) 97,87 %
17.02.2021 20:12 10,1 C 9,4 C 7,3 C 83 % 1017,6 hPa 0,0 l/m 0 min 0 min 0 W/m 0,0 km/h (0 Bft) 97,83 %
17.02.2021 20:14 10,1 C 9,4 C 7,3 C 83 % 1017,6 hPa 0,0 l/m 0 min 0 min 0 W/m 0,0 km/h (0 Bft) 100,00 %
17.02.2021 20:16 10,1 C 9,4 C 7,3 C 83 % 1017,6 hPa 0,0 l/m 0 min 0 min 0 W/m 3,2 km/h (1 Bft) 97,87 %
17.02.2021 20:18 10,1 C 9,4 C 7,3 C 83 % 1017,6 hPa 0,0 l/m 0 min 0 min 0 W/m 0,0 km/h (0 Bft) 97,87 %
17.02.2021 20:20 10,1 C 9,4 C 7,3 C 83 % 1017,7 hPa 0,0 l/m 0 min 0 min 0 W/m 0,0 km/h (0 Bft) 100,00 %
17.02.2021 20:22 10,1 C 9,4 C 7,3 C 83 % 1017,6 hPa 0,0 l/m 0 min 0 min 0 W/m 3,2 km/h (1 Bft) 100,00 %
17.02.2021 20:24 10,1 C 9,4 C 7,3 C 83 % 1017,6 hPa 0,0 l/m 0 min 0 min 0 W/m 0,0 km/h (0 Bft) 97,83 %
17.02.2021 20:26 10,1 C 9,4 C 7,3 C 82 % 1017,7 hPa 0,0 l/m 0 min 0 min 0 W/m 0,0 km/h (0 Bft) 97,78 %
17.02.2021 20:27 10,1 C 9,4 C 7,3 C 82 % 1017,6 hPa 0,0 l/m 0 min 0 min 0 W/m 0,0 km/h (0 Bft) 97,87 %
17.02.2021 20:30 10,1 C 9,4 C 7,3 C 82 % 1017,7 hPa 0,0 l/m 0 min 0 min 0 W/m 0,0 km/h (0 Bft) 97,87 %
17.02.2021 20:32 10,1 C 9,4 C 7,3 C 82 % 1017,7 hPa 0,0 l/m 0 min 0 min 0 W/m 3,2 km/h (1 Bft) 97,92 %
17.02.2021 20:34 10,0 C 9,4 C 7,3 C 82 % 1017,6 hPa 0,0 l/m 0 min 0 min 0 W/m 0,0 km/h (0 Bft) 97,87 %
17.02.2021 20:36 10,0 C 9,4 C 7,3 C 82 % 1017,7 hPa 0,0 l/m 0 min 0 min 0 W/m 3,2 km/h (1 Bft) 97,83 %
17.02.2021 20:38 10,0 C 9,4 C 7,3 C 82 % 1017,6 hPa 0,0 l/m 0 min 0 min 0 W/m 0,0 km/h (0 Bft) 97,87 %
17.02.2021 20:40 10,0 C 9,4 C 7,3 C 82 % 1017,6 hPa 0,0 l/m 0 min 0 min 0 W/m 0,0 km/h (0 Bft) 95,74 %
17.02.2021 20:42 10,0 C 9,4 C 7,3 C 83 % 1017,6 hPa 0,0 l/m 0 min 0 min 0 W/m 0,0 km/h (0 Bft) 95,74 %
17.02.2021 20:44 10,0 C 9,4 C 7,3 C 83 % 1017,6 hPa 0,0 l/m 0 min 0 min 0 W/m 0,0 km/h (0 Bft) 93,62 %
17.02.2021 20:46 10,0 C 9,4 C 7,3 C 83 % 1017,6 hPa 0,0 l/m 0 min 0 min 0 W/m 0,0 km/h (0 Bft) 95,74 %
17.02.2021 20:48 10,0 C 9,4 C 7,3 C 83 % 1017,7 hPa 0,0 l/m 0 min 0 min 0 W/m 0,0 km/h (0 Bft) 95,65 %
17.02.2021 20:50 10,0 C 9,4 C 7,3 C 83 % 1017,7 hPa 0,0 l/m 0 min 0 min 0 W/m 3,2 km/h (1 Bft) 91,49 %
17.02.2021 20:52 10,0 C 9,4 C 7,3 C 83 % 1017,7 hPa 0,0 l/m 0 min 0 min 0 W/m 3,2 km/h (1 Bft) 95,74 %
17.02.2021 20:54 9,9 C 9,4 C 7,3 C 83 % 1017,7 hPa 0,0 l/m 0 min 0 min 0 W/m 0,0 km/h (0 Bft) 95,74 %
17.02.2021 20:56 9,9 C 9,4 C 7,3 C 83 % 1017,7 hPa 0,0 l/m 0 min 0 min 0 W/m 6,4 km/h (2 Bft) 95,74 %
17.02.2021 20:58 9,9 C 9,4 C 7,3 C 83 % 1017,7 hPa 0,0 l/m 0 min 0 min 0 W/m 0,0 km/h (0 Bft) 95,74 %
17.02.2021 21:00 9,9 C 9,4 C 7,3 C 83 % 1017,7 hPa 0,0 l/m 0 min 0 min 0 W/m 3,2 km/h (1 Bft) 95,65 %
17.02.2021 21:02 9,9 C 8,9 C 7,3 C 83 % 1017,7 hPa 0,0 l/m 0 min 0 min 0 W/m 0,0 km/h (0 Bft) 93,62 %
17.02.2021 21:04 9,9 C 8,9 C 7,3 C 83 % 1017,7 hPa 0,0 l/m 0 min 0 min 0 W/m 3,2 km/h (1 Bft) 95,74 %
17.02.2021 21:06 9,8 C 8,9 C 7,3 C 83 % 1017,7 hPa 0,0 l/m 0 min 0 min 0 W/m 3,2 km/h (1 Bft) 95,74 %
17.02.2021 21:08 9,8 C 8,9 C 7,3 C 83 % 1017,7 hPa 0,0 l/m 0 min 0 min 0 W/m 0,0 km/h (0 Bft) 91,49 %
17.02.2021 21:10 9,8 C 8,9 C 7,3 C 83 % 1017,7 hPa 0,0 l/m 0 min 0 min 0 W/m 0,0 km/h (0 Bft) 95,65 %
17.02.2021 21:12 9,8 C 8,9 C 7,3 C 83 % 1017,7 hPa 0,0 l/m 0 min 0 min 0 W/m 0,0 km/h (0 Bft) 95,74 %
17.02.2021 21:14 9,8 C 8,9 C 7,3 C 83 % 1017,7 hPa 0,0 l/m 0 min 0 min 0 W/m 0,0 km/h (0 Bft) 95,74 %
17.02.2021 21:16 9,8 C 8,9 C 7,3 C 83 % 1017,7 hPa 0,0 l/m 0 min 0 min 0 W/m 0,0 km/h (0 Bft) 97,87 %
17.02.2021 21:18 9,7 C 8,9 C 7,3 C 83 % 1017,7 hPa 0,0 l/m 0 min 0 min 0 W/m 0,0 km/h (0 Bft) 97,87 %
17.02.2021 21:20 9,7 C 8,9 C 7,3 C 83 % 1017,7 hPa 0,0 l/m 0 min 0 min 0 W/m 0,0 km/h (0 Bft) 97,87 %
17.02.2021 21:22 9,7 C 8,9 C 7,3 C 83 % 1017,8 hPa 0,0 l/m 0 min 0 min 0 W/m 6,4 km/h (2 Bft) 97,83 %
17.02.2021 21:24 9,7 C 8,9 C 7,3 C 83 % 1017,7 hPa 0,0 l/m 0 min 0 min 0 W/m 0,0 km/h (0 Bft) 97,87 %
17.02.2021 21:26 9,6 C 8,9 C 7,3 C 83 % 1017,8 hPa 0,0 l/m 0 min 0 min 0 W/m 0,0 km/h (0 Bft) 95,74 %
17.02.2021 21:28 9,6 C 8,9 C 7,3 C 83 % 1017,7 hPa 0,0 l/m 0 min 0 min 0 W/m 0,0 km/h (0 Bft) 97,87 %
17.02.2021 21:30 9,6 C 8,9 C 6,7 C 83 % 1017,7 hPa 0,0 l/m 0 min 0 min 0 W/m 0,0 km/h (0 Bft) 97,87 %
17.02.2021 21:32 9,6 C 8,9 C 6,7 C 83 % 1017,7 hPa 0,0 l/m 0 min 0 min 0 W/m 0,0 km/h (0 Bft) 97,87 %
17.02.2021 21:34 9,6 C 8,9 C 6,7 C 83 % 1017,7 hPa 0,0 l/m 0 min 0 min 0 W/m 0,0 km/h (0 Bft) 97,83 %
17.02.2021 21:36 9,6 C 8,9 C 7,3 C 84 % 1017,7 hPa 0,0 l/m 0 min 0 min 0 W/m 0,0 km/h (0 Bft) 100,00 %
17.02.2021 21:38 9,6 C 8,9 C 6,7 C 84 % 1017,7 hPa 0,0 l/m 0 min 0 min 0 W/m 0,0 km/h (0 Bft) 100,00 %
17.02.2021 21:40 9,6 C 8,9 C 6,7 C 84 % 1017,7 hPa 0,0 l/m 0 min 0 min 0 W/m 0,0 km/h (0 Bft) 100,00 %
17.02.2021 21:42 9,6 C 8,9 C 6,7 C 84 % 1017,7 hPa 0,0 l/m 0 min 0 min 0 W/m 0,0 km/h (0 Bft) 100,00 %
17.02.2021 21:44 9,6 C 8,9 C 6,7 C 84 % 1017,7 hPa 0,0 l/m 0 min 0 min 0 W/m 0,0 km/h (0 Bft) 100,00 %
17.02.2021 21:46 9,6 C 8,9 C 6,7 C 84 % 1017,7 hPa 0,0 l/m 0 min 0 min 0 W/m 0,0 km/h (0 Bft) 97,83 %
17.02.2021 21:48 9,6 C 8,9 C 6,7 C 84 % 1017,7 hPa 0,0 l/m 0 min 0 min 0 W/m 0,0 km/h (0 Bft) 100,00 %
17.02.2021 21:50 9,6 C 8,9 C 6,7 C 84 % 1017,7 hPa 0,0 l/m 0 min 0 min 0 W/m 0,0 km/h (0 Bft) 100,00 %
17.02.2021 21:52 9,5 C 8,9 C 6,7 C 84 % 1017,7 hPa 0,0 l/m 0 min 0 min 0 W/m 0,0 km/h (0 Bft) 100,00 %
17.02.2021 21:54 9,5 C 8,9 C 6,7 C 84 % 1017,7 hPa 0,0 l/m 0 min 0 min 0 W/m 0,0 km/h (0 Bft) 100,00 %
17.02.2021 21:56 9,5 C 8,9 C 6,7 C 84 % 1017,8 hPa 0,0 l/m 0 min 0 min 0 W/m 0,0 km/h (0 Bft) 100,00 %
17.02.2021 21:58 9,5 C 8,9 C 6,7 C 84 % 1017,8 hPa 0,0 l/m 0 min 0 min 0 W/m 0,0 km/h (0 Bft) 100,00 %
17.02.2021 22:00 9,5 C 8,9 C 6,7 C 84 % 1017,8 hPa 0,0 l/m 0 min 0 min 0 W/m 0,0 km/h (0 Bft) 97,87 %
17.02.2021 22:02 9,5 C 8,9 C 6,7 C 84 % 1017,8 hPa 0,0 l/m 0 min 0 min 0 W/m 3,2 km/h (1 Bft) 100,00 %
17.02.2021 22:04 9,5 C 8,9 C 6,7 C 84 % 1017,8 hPa 0,0 l/m 0 min 0 min 0 W/m 0,0 km/h (0 Bft) 100,00 %
17.02.2021 22:06 9,5 C 8,9 C 6,7 C 84 % 1017,8 hPa 0,0 l/m 0 min 0 min 0 W/m 0,0 km/h (0 Bft) 100,00 %
17.02.2021 22:08 9,4 C 8,9 C 6,7 C 84 % 1017,8 hPa 0,0 l/m 0 min 0 min 0 W/m 0,0 km/h (0 Bft) 100,00 %
17.02.2021 22:10 9,4 C 8,9 C 6,7 C 84 % 1017,8 hPa 0,0 l/m 0 min 0 min 0 W/m 0,0 km/h (0 Bft) 100,00 %
17.02.2021 22:12 9,4 C 8,9 C 6,7 C 84 % 1017,8 hPa 0,0 l/m 0 min 0 min 0 W/m 0,0 km/h (0 Bft) 100,00 %
17.02.2021 22:14 9,4 C 8,3 C 6,7 C 84 % 1017,7 hPa 0,0 l/m 0 min 0 min 0 W/m 0,0 km/h (0 Bft) 100,00 %
17.02.2021 22:16 9,4 C 8,3 C 6,7 C 85 % 1017,7 hPa 0,0 l/m 0 min 0 min 0 W/m 0,0 km/h (0 Bft) 97,87 %
17.02.2021 22:18 9,4 C 8,3 C 6,7 C 84 % 1017,7 hPa 0,0 l/m 0 min 0 min 0 W/m 0,0 km/h (0 Bft) 100,00 %
17.02.2021 22:20 9,3 C 8,3 C 6,7 C 84 % 1017,7 hPa 0,0 l/m 0 min 0 min 0 W/m 0,0 km/h (0 Bft) 100,00 %
17.02.2021 22:22 9,3 C 8,3 C 6,7 C 85 % 1017,7 hPa 0,0 l/m 0 min 0 min 0 W/m 0,0 km/h (0 Bft) 100,00 %
17.02.2021 22:24 9,3 C 8,3 C 6,7 C 85 % 1017,7 hPa 0,0 l/m 0 min 0 min 0 W/m 0,0 km/h (0 Bft) 97,87 %
17.02.2021 22:26 9,3 C 8,3 C 6,7 C 85 % 1017,6 hPa 0,0 l/m 0 min 0 min 0 W/m 0,0 km/h (0 Bft) 100,00 %
17.02.2021 22:28 9,3 C 8,3 C 6,7 C 85 % 1017,6 hPa 0,0 l/m 0 min 0 min 0 W/m 0,0 km/h (0 Bft) 100,00 %
17.02.2021 22:30 9,3 C 8,3 C 6,7 C 85 % 1017,7 hPa 0,0 l/m 0 min 0 min 0 W/m 0,0 km/h (0 Bft) 100,00 %
17.02.2021 22:32 9,3 C 8,3 C 6,7 C 85 % 1017,7 hPa 0,0 l/m 0 min 0 min 0 W/m 0,0 km/h (0 Bft) 100,00 %
17.02.2021 22:34 9,3 C 8,3 C 6,7 C 85 % 1017,7 hPa 0,0 l/m 0 min 0 min 0 W/m 0,0 km/h (0 Bft) 100,00 %
17.02.2021 22:36 9,3 C 8,3 C 6,7 C 85 % 1017,7 hPa 0,0 l/m 0 min 0 min 0 W/m 0,0 km/h (0 Bft) 100,00 %
17.02.2021 22:38 9,2 C 8,3 C 6,7 C 85 % 1017,7 hPa 0,0 l/m 0 min 0 min 0 W/m 0,0 km/h (0 Bft) 100,00 %
17.02.2021 22:40 9,2 C 8,3 C 6,7 C 85 % 1017,7 hPa 0,0 l/m 0 min 0 min 0 W/m 0,0 km/h (0 Bft) 100,00 %
17.02.2021 22:42 9,2 C 8,3 C 6,7 C 85 % 1017,7 hPa 0,0 l/m 0 min 0 min 0 W/m 0,0 km/h (0 Bft) 100,00 %
17.02.2021 22:44 9,1 C 8,3 C 6,7 C 85 % 1017,6 hPa 0,0 l/m 0 min 0 min 0 W/m 0,0 km/h (0 Bft) 100,00 %
17.02.2021 22:46 9,1 C 8,3 C 6,7 C 85 % 1017,6 hPa 0,0 l/m 0 min 0 min 0 W/m 0,0 km/h (0 Bft) 97,87 %
17.02.2021 22:48 9,1 C 8,3 C 6,7 C 85 % 1017,6 hPa 0,0 l/m 0 min 0 min 0 W/m 0,0 km/h (0 Bft) 100,00 %
17.02.2021 22:50 9,1 C 8,3 C 6,7 C 85 % 1017,6 hPa 0,0 l/m 0 min 0 min 0 W/m 0,0 km/h (0 Bft) 95,74 %
17.02.2021 22:52 9,1 C 8,3 C 6,7 C 85 % 1017,6 hPa 0,0 l/m 0 min 0 min 0 W/m 0,0 km/h (0 Bft) 97,87 %
17.02.2021 22:54 9,1 C 8,3 C 6,7 C 85 % 1017,5 hPa 0,0 l/m 0 min 0 min 0 W/m 3,2 km/h (1 Bft) 97,87 %
17.02.2021 22:56 9,1 C 8,3 C 6,7 C 85 % 1017,6 hPa 0,0 l/m 0 min 0 min 0 W/m 3,2 km/h (1 Bft) 95,74 %
17.02.2021 22:58 9,0 C 8,3 C 6,7 C 85 % 1017,5 hPa 0,0 l/m 0 min 0 min 0 W/m 3,2 km/h (1 Bft) 95,74 %
17.02.2021 23:00 9,0 C 8,3 C 6,7 C 85 % 1017,5 hPa 0,0 l/m 0 min 0 min 0 W/m 3,2 km/h (1 Bft) 97,83 %
17.02.2021 23:02 9,0 C 8,3 C 6,1 C 86 % 1017,5 hPa 0,0 l/m 0 min 0 min 0 W/m 0,0 km/h (0 Bft) 98,11 %
17.02.2021 23:04 9,0 C 8,3 C 6,1 C 86 % 1017,5 hPa 0,0 l/m 0 min 0 min 0 W/m 0,0 km/h (0 Bft) 100,00 %
17.02.2021 23:06 9,0 C 8,3 C 6,1 C 86 % 1017,5 hPa 0,0 l/m 0 min 0 min 0 W/m 0,0 km/h (0 Bft) 93,62 %
17.02.2021 23:08 9,0 C 7,8 C 6,1 C 86 % 1017,5 hPa 0,0 l/m 0 min 0 min 0 W/m 0,0 km/h (0 Bft) 95,74 %
17.02.2021 23:10 8,9 C 7,8 C 6,1 C 86 % 1017,5 hPa 0,0 l/m 0 min 0 min 0 W/m 0,0 km/h (0 Bft) 93,48 %
17.02.2021 23:12 8,9 C 7,8 C 6,1 C 86 % 1017,5 hPa 0,0 l/m 0 min 0 min 0 W/m 3,2 km/h (1 Bft) 95,74 %
17.02.2021 23:14 8,9 C 7,8 C 6,1 C 86 % 1017,5 hPa 0,0 l/m 0 min 0 min 0 W/m 0,0 km/h (0 Bft) 95,74 %
17.02.2021 23:16 8,9 C 7,8 C 6,1 C 86 % 1017,6 hPa 0,0 l/m 0 min 0 min 0 W/m 0,0 km/h (0 Bft) 95,12 %
17.02.2021 23:18 8,8 C 7,8 C 6,1 C 86 % 1017,5 hPa 0,0 l/m 0 min 0 min 0 W/m 0,0 km/h (0 Bft) 96,23 %
17.02.2021 23:20 8,8 C 7,8 C 6,1 C 86 % 1017,6 hPa 0,0 l/m 0 min 0 min 0 W/m 3,2 km/h (1 Bft) 95,74 %
17.02.2021 23:22 8,8 C 7,8 C 6,1 C 86 % 1017,6 hPa 0,0 l/m 0 min 0 min 0 W/m 3,2 km/h (1 Bft) 91,30 %
17.02.2021 23:24 8,8 C 7,8 C 6,1 C 86 % 1017,5 hPa 0,0 l/m 0 min 0 min 0 W/m 0,0 km/h (0 Bft) 95,74 %
17.02.2021 23:26 8,7 C 7,8 C 5,6 C 86 % 1017,5 hPa 0,0 l/m 0 min 0 min 0 W/m 0,0 km/h (0 Bft) 91,49 %
17.02.2021 23:28 8,6 C 7,8 C 5,6 C 86 % 1017,5 hPa 0,0 l/m 0 min 0 min 0 W/m 0,0 km/h (0 Bft) 93,62 %
17.02.2021 23:30 8,6 C 7,8 C 5,6 C 86 % 1017,5 hPa 0,0 l/m 0 min 0 min 0 W/m 0,0 km/h (0 Bft) 93,62 %
17.02.2021 23:32 8,6 C 7,8 C 5,6 C 86 % 1017,5 hPa 0,0 l/m 0 min 0 min 0 W/m 0,0 km/h (0 Bft) 93,75 %
17.02.2021 23:34 8,5 C 7,8 C 5,6 C 86 % 1017,5 hPa 0,0 l/m 0 min 0 min 0 W/m 0,0 km/h (0 Bft) 93,48 %
17.02.2021 23:36 8,5 C 7,8 C 5,6 C 86 % 1017,5 hPa 0,0 l/m 0 min 0 min 0 W/m 0,0 km/h (0 Bft) 91,49 %
17.02.2021 23:38 8,5 C 7,2 C 5,6 C 86 % 1017,5 hPa 0,0 l/m 0 min 0 min 0 W/m 0,0 km/h (0 Bft) 89,36 %
17.02.2021 23:40 8,5 C 7,2 C 5,6 C 86 % 1017,5 hPa 0,0 l/m 0 min 0 min 0 W/m 0,0 km/h (0 Bft) 93,62 %
17.02.2021 23:42 8,4 C 7,2 C 5,6 C 86 % 1017,4 hPa 0,0 l/m 0 min 0 min 0 W/m 0,0 km/h (0 Bft) 91,49 %
17.02.2021 23:44 8,4 C 7,2 C 5,6 C 86 % 1017,4 hPa 0,0 l/m 0 min 0 min 0 W/m 0,0 km/h (0 Bft) 93,62 %
17.02.2021 23:46 8,3 C 7,2 C 5,6 C 87 % 1017,5 hPa 0,0 l/m 0 min 0 min 0 W/m 0,0 km/h (0 Bft) 91,30 %
17.02.2021 23:48 8,3 C 7,2 C 5,0 C 87 % 1017,4 hPa 0,0 l/m 0 min 0 min 0 W/m 0,0 km/h (0 Bft) 93,62 %
17.02.2021 23:50 8,3 C 7,2 C 5,0 C 87 % 1017,4 hPa 0,0 l/m 0 min 0 min 0 W/m 0,0 km/h (0 Bft) 93,62 %
17.02.2021 23:52 8,2 C 7,2 C 5,0 C 87 % 1017,4 hPa 0,0 l/m 0 min 0 min 0 W/m 0,0 km/h (0 Bft) 91,49 %
17.02.2021 23:54 8,2 C 7,2 C 5,0 C 87 % 1017,5 hPa 0,0 l/m 0 min 0 min 0 W/m 0,0 km/h (0 Bft) 95,74 %
17.02.2021 23:56 8,1 C 7,2 C 5,0 C 87 % 1017,4 hPa 0,0 l/m 0 min 0 min 0 W/m 3,2 km/h (1 Bft) 97,87 %
17.02.2021 23:58 8,1 C 7,2 C 5,0 C 87 % 1017,5 hPa 0,0 l/m 0 min 0 min 0 W/m 0,0 km/h (0 Bft) 97,83 %
_ Min-Zeit 00:26 00:02 23:48 16:42 00:00 - - - - 00:00 07:22
Minimum _ 7,2 C 6,1 C 5,0 C 79 % 1012,9 hPa - - - - 0,0 km/h (0 Bft) 28,57 %
_ Max-Zeit 14:30 13:36 14:10 00:00 11:50 00:00 11:24 04:16 11:24 03:28 00:18
Maximum _ 11,9 C 12,2 C 11,7 C 96 % 1017,8 hPa 0,0 l/m 2 min 2 min 289 W/m 48,3 km/h
S-SO (6 Bft)
100,00 %
Durchschnitt _ 9,3 C 8,8 C 7,7 C 87 % 1016,5 hPa #0,0 l/m #46 min. #8 min. 108 W/m 2,4 km/h (1 Bft) 97,39 %
© 2021 W. Hausmann